Time,TemperatureF,DewpointF,PressureIn,WindDirection,WindDirectionDegrees,WindSpeedMPH,WindSpeedGustMPH,Humidity,HourlyPrecipIn,Conditions,Clouds,dailyrainin,SoftwareType,DateUTC
2013-10-03 00:01:00,72.5,67.4,29.12,SSE,156,4.5,4.5,84,0.00,,CLR,0.00,VWS V14.01,2013-10-03 05:01:00,
2013-10-03 00:02:00,72.5,67.4,29.12,South,174,3.1,4.9,84,0.00,,CLR,0.00,VWS V14.01,2013-10-03 05:02:00,
2013-10-03 00:03:00,72.5,67.4,29.12,South,170,6.3,6.3,84,0.00,,CLR,0.00,VWS V14.01,2013-10-03 05:03:00,
2013-10-03 00:07:00,72.5,67.4,29.12,South,169,4.9,4.9,84,0.00,,CLR,0.00,VWS V14.01,2013-10-03 05:07:00,
2013-10-03 00:08:00,72.5,67.4,29.09,South,169,3.1,3.1,84,0.00,,CLR,0.00,VWS V14.01,2013-10-03 05:08:00,
2013-10-03 00:09:00,72.5,67.4,29.09,SSE,165,2.7,4.0,84,0.00,,CLR,0.00,VWS V14.01,2013-10-03 05:09:00,
2013-10-03 00:10:00,72.3,67.2,29.09,South,183,5.4,5.4,84,0.00,,CLR,0.00,VWS V14.01,2013-10-03 05:10:00,
2013-10-03 00:14:00,72.3,67.2,29.09,SSE,149,7.2,7.2,84,0.00,,CLR,0.00,VWS V14.01,2013-10-03 05:14:00,
2013-10-03 00:15:00,72.3,67.2,29.09,South,181,5.8,7.2,84,0.00,,CLR,0.00,VWS V14.01,2013-10-03 05:15:00,
2013-10-03 00:16:00,72.3,67.2,29.09,SSE,165,4.9,4.9,84,0.00,,CLR,0.00,VWS V14.01,2013-10-03 05:16:00,
2013-10-03 00:19:00,72.1,67.0,29.09,SSE,162,2.7,5.4,84,0.00,,CLR,0.00,VWS V14.01,2013-10-03 05:19:00,
2013-10-03 00:20:00,72.1,67.0,29.09,South,170,3.6,3.6,84,0.00,,CLR,0.00,VWS V14.01,2013-10-03 05:20:00,
2013-10-03 00:21:00,72.1,67.0,29.09,South,172,3.6,4.0,84,0.00,,CLR,0.00,VWS V14.01,2013-10-03 05:21:00,
2013-10-03 00:22:00,72.1,67.0,29.09,SSE,155,5.4,5.4,84,0.00,,CLR,0.00,VWS V14.01,2013-10-03 05:22:00,
2013-10-03 00:25:00,72.1,67.0,29.12,SSE,160,3.1,5.4,84,0.00,,CLR,0.00,VWS V14.01,2013-10-03 05:25:00,
2013-10-03 00:26:00,72.1,67.0,29.12,SSE,155,3.6,3.6,84,0.00,,CLR,0.00,VWS V14.01,2013-10-03 05:26:00,
2013-10-03 00:27:00,72.1,67.0,29.12,SSE,154,4.0,4.0,84,0.00,,CLR,0.00,VWS V14.01,2013-10-03 05:27:00,
2013-10-03 00:28:00,72.0,66.9,29.12,SSE,157,2.7,4.0,84,0.00,,CLR,0.00,VWS V14.01,2013-10-03 05:28:00,
2013-10-03 00:29:00,72.0,66.9,29.12,SSE,162,3.6,4.9,84,0.00,,CLR,0.00,VWS V14.01,2013-10-03 05:29:00,
2013-10-03 00:30:00,72.0,66.9,29.12,South,181,4.0,6.3,84,0.00,,CLR,0.00,VWS V14.01,2013-10-03 05:30:00,
2013-10-03 00:31:00,72.0,66.9,29.12,SSE,152,3.1,3.6,84,0.00,,CLR,0.00,VWS V14.01,2013-10-03 05:31:00,
2013-10-03 00:33:00,72.0,66.9,29.12,SSE,153,4.0,4.0,84,0.00,,CLR,0.00,VWS V14.01,2013-10-03 05:33:00,
2013-10-03 00:35:00,71.8,66.7,29.12,SSE,161,3.1,3.1,84,0.00,,CLR,0.00,VWS V14.01,2013-10-03 05:35:00,
2013-10-03 00:37:00,71.8,66.7,29.12,SSE,149,3.1,3.1,84,0.00,,CLR,0.00,VWS V14.01,2013-10-03 05:37:00,
2013-10-03 00:38:00,71.8,66.7,29.12,SSE,149,0.0,3.1,84,0.00,,CLR,0.00,VWS V14.01,2013-10-03 05:38:00,
2013-10-03 00:41:00,71.6,66.5,29.12,SSE,149,2.7,3.6,84,0.00,,CLR,0.00,VWS V14.01,2013-10-03 05:41:00,
2013-10-03 00:42:00,71.6,67.2,29.12,SSE,151,2.2,3.6,86,0.00,,CLR,0.00,VWS V14.01,2013-10-03 05:42:00,
2013-10-03 00:43:00,71.6,67.2,29.12,SSE,161,2.7,3.1,86,0.00,,CLR,0.00,VWS V14.01,2013-10-03 05:43:00,
2013-10-03 00:44:00,71.6,67.2,29.12,SSE,156,3.6,4.0,86,0.00,,CLR,0.00,VWS V14.01,2013-10-03 05:44:00,
2013-10-03 00:45:00,71.6,67.2,29.12,SSE,154,3.6,3.6,86,0.00,,CLR,0.00,VWS V14.01,2013-10-03 05:45:00,
2013-10-03 00:46:00,71.6,67.2,29.12,SSE,159,0.0,0.0,86,0.00,,CLR,0.00,VWS V14.01,2013-10-03 05:46:00,
2013-10-03 00:48:00,71.6,67.2,29.12,SE,137,3.1,4.9,86,0.00,,CLR,0.00,VWS V14.01,2013-10-03 05:48:00,
2013-10-03 00:49:00,71.6,67.2,29.12,SSE,157,4.0,4.0,86,0.00,,CLR,0.00,VWS V14.01,2013-10-03 05:49:00,
2013-10-03 00:50:00,71.6,67.9,29.12,SSE,167,2.7,5.4,88,0.00,,CLR,0.00,VWS V14.01,2013-10-03 05:50:00,
2013-10-03 00:52:00,71.6,67.9,29.12,SSE,164,3.1,3.1,88,0.00,,CLR,0.00,VWS V14.01,2013-10-03 05:52:00,
2013-10-03 00:53:00,71.6,67.9,29.12,SSE,152,6.3,6.3,88,0.00,,CLR,0.00,VWS V14.01,2013-10-03 05:53:00,
2013-10-03 00:54:00,71.6,67.9,29.12,SSE,153,2.7,3.6,88,0.00,,CLR,0.00,VWS V14.01,2013-10-03 05:54:00,
2013-10-03 00:55:00,71.6,67.9,29.12,SSE,155,5.4,5.4,88,0.00,,CLR,0.00,VWS V14.01,2013-10-03 05:55:00,
2013-10-03 00:57:00,71.6,67.9,29.12,SSE,151,3.6,4.0,88,0.00,,CLR,0.00,VWS V14.01,2013-10-03 05:57:00,
2013-10-03 00:58:00,71.6,67.9,29.12,SSE,160,5.4,5.4,88,0.00,,CLR,0.00,VWS V14.01,2013-10-03 05:58:00,
2013-10-03 00:59:00,71.6,67.9,29.12,SSE,162,2.2,4.0,88,0.00,,CLR,0.00,VWS V14.01,2013-10-03 05:59:00,
2013-10-03 01:00:00,71.6,67.9,29.12,SSE,164,4.9,4.9,88,0.00,,CLR,0.00,VWS V14.01,2013-10-03 06:00:00,
2013-10-03 01:03:00,71.6,68.5,29.12,SSE,153,3.6,3.6,90,0.00,,CLR,0.00,VWS V14.01,2013-10-03 06:03:00,
2013-10-03 01:04:00,71.6,68.5,29.12,SSE,159,0.0,3.6,90,0.00,,CLR,0.00,VWS V14.01,2013-10-03 06:04:00,
2013-10-03 01:05:00,71.6,68.5,29.12,SSE,159,2.2,2.2,90,0.00,,CLR,0.00,VWS V14.01,2013-10-03 06:05:00,
2013-10-03 01:06:00,71.6,68.5,29.12,SSE,156,4.0,4.0,90,0.00,,CLR,0.00,VWS V14.01,2013-10-03 06:06:00,
2013-10-03 01:08:00,71.4,68.3,29.09,SSE,157,2.7,2.7,90,0.00,,CLR,0.00,VWS V14.01,2013-10-03 06:08:00,
2013-10-03 01:09:00,71.4,69.0,29.09,SSE,157,2.2,2.2,92,0.00,,CLR,0.00,VWS V14.01,2013-10-03 06:09:00,
2013-10-03 01:10:00,71.4,69.0,29.09,SSE,158,2.2,3.1,92,0.00,,CLR,0.00,VWS V14.01,2013-10-03 06:10:00,
2013-10-03 01:11:00,71.4,69.0,29.09,SSE,158,0.0,2.2,92,0.00,,CLR,0.00,VWS V14.01,2013-10-03 06:11:00,
2013-10-03 01:14:00,71.4,69.0,29.09,SSE,159,3.6,4.0,92,0.00,,CLR,0.00,VWS V14.01,2013-10-03 06:14:00,
2013-10-03 01:15:00,71.4,69.0,29.09,SSE,162,4.0,4.0,92,0.00,,CLR,0.00,VWS V14.01,2013-10-03 06:15:00,
2013-10-03 01:16:00,71.4,69.0,29.09,SSE,162,2.7,4.0,92,0.00,,CLR,0.00,VWS V14.01,2013-10-03 06:16:00,
2013-10-03 01:20:00,71.4,69.6,29.09,SSE,156,2.7,4.9,94,0.00,,CLR,0.00,VWS V14.01,2013-10-03 06:20:00,
2013-10-03 01:21:00,71.4,69.6,29.09,SE,139,5.8,5.8,94,0.00,,CLR,0.00,VWS V14.01,2013-10-03 06:21:00,
2013-10-03 01:22:00,71.6,69.8,29.09,SE,142,3.1,5.8,94,0.00,,CLR,0.00,VWS V14.01,2013-10-03 06:22:00,
2013-10-03 01:26:00,71.6,69.8,29.12,SSE,155,4.0,6.3,94,0.00,,CLR,0.00,VWS V14.01,2013-10-03 06:26:00,
2013-10-03 01:27:00,71.8,70.6,29.12,SSE,166,3.6,4.0,96,0.00,,CLR,0.00,VWS V14.01,2013-10-03 06:27:00,
2013-10-03 01:31:00,72.0,71.4,29.12,South,172,2.7,4.9,98,0.00,,CLR,0.00,VWS V14.01,2013-10-03 06:31:00,
2013-10-03 01:32:00,72.0,71.4,29.12,SSE,162,3.1,3.6,98,0.00,,CLR,0.00,VWS V14.01,2013-10-03 06:32:00,
2013-10-03 01:33:00,72.0,71.4,29.12,South,173,3.1,4.9,98,0.00,,CLR,0.00,VWS V14.01,2013-10-03 06:33:00,
2013-10-03 01:37:00,72.1,71.6,29.12,SSE,161,4.9,4.9,98,0.00,,CLR,0.00,VWS V14.01,2013-10-03 06:37:00,
2013-10-03 01:38:00,72.1,72.2,29.12,SSE,155,6.3,6.3,100,0.00,,CLR,0.00,VWS V14.01,2013-10-03 06:38:00,
2013-10-03 01:39:00,72.1,72.2,29.12,SSE,163,2.7,2.7,100,0.00,,CLR,0.00,VWS V14.01,2013-10-03 06:39:00,
2013-10-03 01:42:00,72.1,72.2,29.12,SSE,163,4.9,5.4,100,0.00,,CLR,0.00,VWS V14.01,2013-10-03 06:42:00,
2013-10-03 01:43:00,72.1,72.2,29.12,SSE,164,5.4,8.1,100,0.00,,CLR,0.00,VWS V14.01,2013-10-03 06:43:00,
2013-10-03 01:44:00,72.3,72.3,29.12,SSE,157,3.1,5.4,100,0.00,,CLR,0.00,VWS V14.01,2013-10-03 06:44:00,
2013-10-03 01:45:00,72.3,72.3,29.12,SSE,160,3.6,3.6,100,0.00,,CLR,0.00,VWS V14.01,2013-10-03 06:45:00,
2013-10-03 01:48:00,72.3,72.3,29.12,SSE,156,0.0,3.6,100,0.00,,CLR,0.00,VWS V14.01,2013-10-03 06:48:00,
2013-10-03 01:49:00,72.3,72.3,29.12,SE,145,2.7,3.1,100,0.00,,CLR,0.00,VWS V14.01,2013-10-03 06:49:00,
2013-10-03 01:51:00,72.3,72.3,29.12,SE,144,2.7,4.5,100,0.00,,CLR,0.00,VWS V14.01,2013-10-03 06:51:00,
2013-10-03 01:52:00,72.3,72.3,29.12,SSE,162,5.4,6.3,100,0.00,,CLR,0.00,VWS V14.01,2013-10-03 06:52:00,
2013-10-03 01:53:00,72.3,72.3,29.12,SSE,165,3.1,3.6,100,0.00,,CLR,0.00,VWS V14.01,2013-10-03 06:53:00,
2013-10-03 01:54:00,72.3,72.3,29.12,SSE,150,3.6,3.6,100,0.00,,CLR,0.00,VWS V14.01,2013-10-03 06:54:00,
2013-10-03 01:57:00,72.1,72.2,29.12,SSE,160,5.4,5.4,100,0.00,,CLR,0.00,VWS V14.01,2013-10-03 06:57:00,
2013-10-03 01:59:00,72.1,72.2,29.12,SSE,158,4.9,4.9,100,0.00,,CLR,0.00,VWS V14.01,2013-10-03 06:59:00,
2013-10-03 02:00:00,72.1,72.2,29.12,SSE,164,4.0,4.9,100,0.00,,CLR,0.00,VWS V14.01,2013-10-03 07:00:00,
2013-10-03 02:02:00,72.1,72.2,29.12,SSE,155,5.8,5.8,100,0.00,,CLR,0.00,VWS V14.01,2013-10-03 07:02:00,
2013-10-03 02:04:00,72.1,72.2,29.12,SE,141,2.7,5.8,100,0.00,,CLR,0.00,VWS V14.01,2013-10-03 07:04:00,
2013-10-03 02:05:00,72.1,72.2,29.12,SSE,166,4.5,5.8,100,0.00,,CLR,0.00,VWS V14.01,2013-10-03 07:05:00,
2013-10-03 02:06:00,72.1,72.2,29.12,SE,129,3.6,5.8,100,0.00,,CLR,0.00,VWS V14.01,2013-10-03 07:06:00,
2013-10-03 02:08:00,72.1,72.2,29.12,SE,145,3.6,4.9,100,0.00,,CLR,0.00,VWS V14.01,2013-10-03 07:08:00,
2013-10-03 02:09:00,72.1,72.2,29.12,SSE,153,4.9,5.4,100,0.00,,CLR,0.00,VWS V14.01,2013-10-03 07:09:00,
2013-10-03 02:10:00,72.1,72.2,29.12,SSE,154,3.1,5.4,100,0.00,,CLR,0.00,VWS V14.01,2013-10-03 07:10:00,
2013-10-03 02:11:00,72.1,72.2,29.12,SSE,152,3.1,6.3,100,0.00,,CLR,0.00,VWS V14.01,2013-10-03 07:11:00,
2013-10-03 02:13:00,72.1,72.2,29.12,SSE,148,5.4,6.3,100,0.00,,CLR,0.00,VWS V14.01,2013-10-03 07:13:00,
2013-10-03 02:14:00,72.1,72.2,29.12,SSE,155,5.8,5.8,100,0.00,,CLR,0.00,VWS V14.01,2013-10-03 07:14:00,
2013-10-03 02:15:00,72.1,72.2,29.12,SSE,160,3.1,6.3,100,0.00,,CLR,0.00,VWS V14.01,2013-10-03 07:15:00,
2013-10-03 02:16:00,72.1,72.2,29.12,SSE,166,4.9,4.9,100,0.00,,CLR,0.00,VWS V14.01,2013-10-03 07:16:00,
2013-10-03 02:17:00,72.1,72.2,29.12,SSE,150,4.0,6.3,100,0.00,,CLR,0.00,VWS V14.01,2013-10-03 07:17:00,
2013-10-03 02:19:00,72.1,72.2,29.12,SSE,166,3.6,4.9,100,0.00,,CLR,0.00,VWS V14.01,2013-10-03 07:19:00,
2013-10-03 02:21:00,72.1,72.2,29.12,SE,144,4.9,6.3,100,0.00,,CLR,0.00,VWS V14.01,2013-10-03 07:21:00,
2013-10-03 02:22:00,72.1,72.2,29.12,SSE,163,3.1,3.1,100,0.00,,CLR,0.00,VWS V14.01,2013-10-03 07:22:00,
2013-10-03 02:23:00,72.1,72.2,29.09,SSE,162,4.0,5.4,100,0.00,,CLR,0.00,VWS V14.01,2013-10-03 07:23:00,
2013-10-03 02:24:00,72.1,72.2,29.09,South,177,3.1,5.8,100,0.00,,CLR,0.00,VWS V14.01,2013-10-03 07:24:00,
2013-10-03 02:26:00,72.1,72.2,29.09,SSE,154,3.1,3.1,100,0.00,,CLR,0.00,VWS V14.01,2013-10-03 07:26:00,
2013-10-03 02:27:00,72.1,72.2,29.09,SSE,157,4.9,5.4,100,0.00,,CLR,0.00,VWS V14.01,2013-10-03 07:27:00,
2013-10-03 02:28:00,72.1,72.2,29.09,SSE,157,3.6,5.4,100,0.00,,CLR,0.00,VWS V14.01,2013-10-03 07:28:00,
2013-10-03 02:30:00,72.1,72.2,29.09,SE,142,4.9,5.4,100,0.00,,CLR,0.00,VWS V14.01,2013-10-03 07:30:00,
2013-10-03 02:32:00,72.1,72.2,29.09,SSE,158,5.8,5.8,100,0.00,,CLR,0.00,VWS V14.01,2013-10-03 07:32:00,
2013-10-03 02:33:00,72.1,72.2,29.09,South,177,4.0,5.8,100,0.00,,CLR,0.00,VWS V14.01,2013-10-03 07:33:00,
2013-10-03 02:34:00,72.3,72.3,29.09,SSE,159,3.6,5.8,100,0.00,,CLR,0.00,VWS V14.01,2013-10-03 07:34:00,
2013-10-03 02:35:00,72.3,72.3,29.09,SSE,168,4.0,5.4,100,0.00,,CLR,0.00,VWS V14.01,2013-10-03 07:35:00,
2013-10-03 02:38:00,72.3,72.3,29.09,SSE,166,3.1,8.1,100,0.00,,CLR,0.00,VWS V14.01,2013-10-03 07:38:00,
2013-10-03 02:39:00,72.3,72.3,29.09,South,182,5.4,5.4,100,0.00,,CLR,0.00,VWS V14.01,2013-10-03 07:39:00,
2013-10-03 02:40:00,72.3,72.3,29.09,SE,146,6.3,6.3,100,0.00,,CLR,0.00,VWS V14.01,2013-10-03 07:40:00,
2013-10-03 02:41:00,72.3,72.3,29.09,SSE,156,6.3,7.6,100,0.00,,CLR,0.00,VWS V14.01,2013-10-03 07:41:00,
2013-10-03 02:43:00,72.5,72.5,29.09,SSE,164,6.3,6.3,100,0.00,,CLR,0.00,VWS V14.01,2013-10-03 07:43:00,
2013-10-03 02:44:00,72.5,72.5,29.09,SSE,168,5.4,6.3,100,0.00,,CLR,0.00,VWS V14.01,2013-10-03 07:44:00,
2013-10-03 02:45:00,72.5,72.5,29.09,SSE,149,5.4,7.6,100,0.00,,CLR,0.00,VWS V14.01,2013-10-03 07:45:00,
2013-10-03 02:46:00,72.5,72.5,29.09,SE,130,5.8,6.3,100,0.00,,CLR,0.00,VWS V14.01,2013-10-03 07:46:00,
2013-10-03 02:49:00,72.5,72.5,29.09,SSE,158,6.3,7.2,100,0.00,,CLR,0.00,VWS V14.01,2013-10-03 07:49:00,
2013-10-03 02:50:00,72.7,72.7,29.09,South,178,5.8,6.7,100,0.00,,CLR,0.00,VWS V14.01,2013-10-03 07:50:00,
2013-10-03 02:51:00,72.7,72.7,29.09,South,173,5.4,5.4,100,0.00,,CLR,0.00,VWS V14.01,2013-10-03 07:51:00,
2013-10-03 02:53:00,72.7,72.7,29.09,SSE,167,7.2,7.2,100,0.00,,CLR,0.00,VWS V14.01,2013-10-03 07:53:00,
2013-10-03 02:54:00,72.7,72.7,29.09,SSE,153,5.4,7.2,100,0.00,,CLR,0.00,VWS V14.01,2013-10-03 07:54:00,
2013-10-03 02:55:00,72.7,72.7,29.09,SSE,165,5.8,7.2,100,0.00,,CLR,0.00,VWS V14.01,2013-10-03 07:55:00,
2013-10-03 02:56:00,72.7,72.7,29.09,South,170,6.7,6.7,100,0.00,,CLR,0.00,VWS V14.01,2013-10-03 07:56:00,
2013-10-03 02:57:00,72.7,72.7,29.09,SSE,149,3.6,3.6,100,0.00,,CLR,0.00,VWS V14.01,2013-10-03 07:57:00,
2013-10-03 02:59:00,72.7,72.7,29.09,South,175,5.8,8.3,100,0.00,,CLR,0.00,VWS V14.01,2013-10-03 07:59:00,
2013-10-03 03:00:00,72.7,72.7,29.09,SSE,162,5.4,7.6,100,0.00,,CLR,0.00,VWS V14.01,2013-10-03 08:00:00,
2013-10-03 03:02:00,72.7,72.7,29.09,South,173,6.3,6.3,100,0.00,,CLR,0.00,VWS V14.01,2013-10-03 08:02:00,
2013-10-03 03:03:00,72.7,72.7,29.09,South,191,5.8,6.3,100,0.00,,CLR,0.00,VWS V14.01,2013-10-03 08:03:00,
2013-10-03 03:04:00,72.7,72.7,29.09,SSE,163,5.8,5.8,100,0.00,,CLR,0.00,VWS V14.01,2013-10-03 08:04:00,
2013-10-03 03:05:00,72.7,72.7,29.09,SSE,158,8.1,8.1,100,0.00,,CLR,0.00,VWS V14.01,2013-10-03 08:05:00,
2013-10-03 03:07:00,72.7,72.7,29.09,SSE,153,3.6,6.3,100,0.00,,CLR,0.00,VWS V14.01,2013-10-03 08:07:00,
2013-10-03 03:08:00,72.7,72.7,29.09,SSE,163,6.3,7.6,100,0.00,,CLR,0.00,VWS V14.01,2013-10-03 08:08:00,
2013-10-03 03:09:00,72.7,72.7,29.09,SE,146,6.3,7.6,100,0.00,,CLR,0.00,VWS V14.01,2013-10-03 08:09:00,
2013-10-03 03:10:00,72.7,72.7,29.09,SE,128,5.8,6.3,100,0.00,,CLR,0.00,VWS V14.01,2013-10-03 08:10:00,
2013-10-03 03:13:00,72.7,72.7,29.09,SSE,165,6.7,9.2,100,0.00,,CLR,0.00,VWS V14.01,2013-10-03 08:13:00,
2013-10-03 03:15:00,72.7,72.7,29.09,SSW,194,5.8,6.3,100,0.00,,CLR,0.00,VWS V14.01,2013-10-03 08:15:00,
2013-10-03 03:16:00,72.7,72.7,29.09,SSW,196,5.4,6.3,100,0.00,,CLR,0.00,VWS V14.01,2013-10-03 08:16:00,
2013-10-03 03:18:00,72.7,72.7,29.09,SSE,158,6.3,8.1,100,0.00,,CLR,0.00,VWS V14.01,2013-10-03 08:18:00,
2013-10-03 03:21:00,72.7,72.7,29.09,SSE,164,5.8,8.1,100,0.00,,CLR,0.00,VWS V14.01,2013-10-03 08:21:00,
2013-10-03 03:22:00,72.7,72.7,29.09,South,183,6.3,6.3,100,0.00,,CLR,0.00,VWS V14.01,2013-10-03 08:22:00,
2013-10-03 03:23:00,72.7,72.7,29.09,South,188,7.6,7.6,100,0.00,,CLR,0.00,VWS V14.01,2013-10-03 08:23:00,
2013-10-03 03:24:00,72.7,72.7,29.09,SSE,160,5.8,8.1,100,0.00,,CLR,0.00,VWS V14.01,2013-10-03 08:24:00,
2013-10-03 03:26:00,72.7,72.7,29.09,South,177,8.1,8.1,100,0.00,,CLR,0.00,VWS V14.01,2013-10-03 08:26:00,
2013-10-03 03:28:00,72.9,72.9,29.09,SSW,192,6.7,8.3,100,0.00,,CLR,0.00,VWS V14.01,2013-10-03 08:28:00,
2013-10-03 03:31:00,72.9,72.3,29.09,SSE,164,6.3,8.7,98,0.00,,CLR,0.00,VWS V14.01,2013-10-03 08:31:00,
2013-10-03 03:32:00,72.7,72.1,29.09,SW,218,7.6,8.1,98,0.00,,CLR,0.00,VWS V14.01,2013-10-03 08:32:00,
2013-10-03 03:34:00,72.9,72.3,29.09,South,178,6.7,8.1,98,0.00,,CLR,0.00,VWS V14.01,2013-10-03 08:34:00,
2013-10-03 03:35:00,72.7,72.1,29.09,South,172,3.6,6.7,98,0.00,,CLR,0.00,VWS V14.01,2013-10-03 08:35:00,
2013-10-03 03:36:00,72.7,72.1,29.09,SSE,147,7.6,8.1,98,0.00,,CLR,0.00,VWS V14.01,2013-10-03 08:36:00,
2013-10-03 03:38:00,72.9,72.3,29.09,SE,139,8.3,8.3,98,0.00,,CLR,0.00,VWS V14.01,2013-10-03 08:38:00,
2013-10-03 03:39:00,72.9,72.3,29.09,South,171,8.1,8.1,98,0.00,,CLR,0.00,VWS V14.01,2013-10-03 08:39:00,
2013-10-03 03:41:00,72.9,71.7,29.09,South,178,7.6,8.7,96,0.00,,CLR,0.00,VWS V14.01,2013-10-03 08:41:00,
2013-10-03 03:42:00,72.9,71.7,29.09,SSE,147,8.1,8.1,96,0.00,,CLR,0.00,VWS V14.01,2013-10-03 08:42:00,
2013-10-03 03:44:00,72.9,71.7,29.09,South,169,6.3,8.1,96,0.00,,CLR,0.00,VWS V14.01,2013-10-03 08:44:00,
2013-10-03 03:45:00,72.7,71.5,29.09,South,177,5.4,5.8,96,0.00,,CLR,0.00,VWS V14.01,2013-10-03 08:45:00,
2013-10-03 03:46:00,72.7,71.5,29.09,South,186,8.7,8.7,96,0.00,,CLR,0.00,VWS V14.01,2013-10-03 08:46:00,
2013-10-03 03:47:00,72.7,71.5,29.09,South,175,7.6,8.7,96,0.00,,CLR,0.00,VWS V14.01,2013-10-03 08:47:00,
2013-10-03 03:49:00,72.7,71.5,29.09,SSE,156,5.8,5.8,96,0.00,,CLR,0.00,VWS V14.01,2013-10-03 08:49:00,
2013-10-03 03:50:00,72.7,70.9,29.09,SSE,153,5.4,5.8,94,0.00,,CLR,0.00,VWS V14.01,2013-10-03 08:50:00,
2013-10-03 03:52:00,72.7,70.9,29.09,South,171,8.1,8.1,94,0.00,,CLR,0.00,VWS V14.01,2013-10-03 08:52:00,
2013-10-03 03:54:00,72.7,70.9,29.09,SSE,148,5.4,5.8,94,0.00,,CLR,0.00,VWS V14.01,2013-10-03 08:54:00,
2013-10-03 03:55:00,72.7,70.9,29.09,SSE,165,5.4,8.1,94,0.00,,CLR,0.00,VWS V14.01,2013-10-03 08:55:00,
2013-10-03 03:56:00,72.7,70.9,29.09,South,174,6.3,7.2,94,0.00,,CLR,0.00,VWS V14.01,2013-10-03 08:56:00,
2013-10-03 03:58:00,72.7,70.9,29.09,SSE,163,8.1,8.1,94,0.00,,CLR,0.00,VWS V14.01,2013-10-03 08:58:00,
2013-10-03 04:00:00,72.5,70.7,29.09,South,182,8.1,8.1,94,0.00,,CLR,0.00,VWS V14.01,2013-10-03 09:00:00,
2013-10-03 04:01:00,72.5,70.7,29.09,South,173,5.8,5.8,94,0.00,,CLR,0.00,VWS V14.01,2013-10-03 09:01:00,
2013-10-03 04:02:00,72.5,70.7,29.09,South,171,5.4,5.4,94,0.00,,CLR,0.00,VWS V14.01,2013-10-03 09:02:00,
2013-10-03 04:03:00,72.5,70.7,29.09,SSE,158,5.8,6.3,94,0.00,,CLR,0.00,VWS V14.01,2013-10-03 09:03:00,
2013-10-03 04:05:00,72.5,70.7,29.09,SSE,150,6.3,6.3,94,0.00,,CLR,0.00,VWS V14.01,2013-10-03 09:05:00,
2013-10-03 04:06:00,72.5,70.7,29.09,SE,138,4.0,4.9,94,0.00,,CLR,0.00,VWS V14.01,2013-10-03 09:06:00,
2013-10-03 04:07:00,72.5,70.7,29.09,SSE,167,4.0,7.6,94,0.00,,CLR,0.00,VWS V14.01,2013-10-03 09:07:00,
2013-10-03 04:08:00,72.5,70.7,29.09,SSE,166,7.6,8.1,94,0.00,,CLR,0.00,VWS V14.01,2013-10-03 09:08:00,
2013-10-03 04:10:00,72.5,70.7,29.09,SSE,166,4.0,5.4,94,0.00,,CLR,0.00,VWS V14.01,2013-10-03 09:10:00,
2013-10-03 04:11:00,72.3,70.5,29.09,South,184,4.0,6.7,94,0.00,,CLR,0.00,VWS V14.01,2013-10-03 09:11:00,
2013-10-03 04:12:00,72.3,70.5,29.09,South,171,4.0,6.7,94,0.00,,CLR,0.00,VWS V14.01,2013-10-03 09:12:00,
2013-10-03 04:14:00,72.3,70.5,29.09,SSW,212,3.6,5.8,94,0.00,,CLR,0.00,VWS V14.01,2013-10-03 09:14:00,
2013-10-03 04:15:00,72.3,70.5,29.09,SE,127,5.8,7.6,94,0.00,,CLR,0.00,VWS V14.01,2013-10-03 09:15:00,
2013-10-03 04:17:00,72.3,71.1,29.09,SE,146,7.2,8.1,96,0.00,,CLR,0.00,VWS V14.01,2013-10-03 09:17:00,
2013-10-03 04:18:00,72.3,71.1,29.09,SSE,161,4.9,7.6,96,0.00,,CLR,0.00,VWS V14.01,2013-10-03 09:18:00,
2013-10-03 04:19:00,72.3,71.1,29.09,South,179,8.3,8.3,96,0.00,,CLR,0.00,VWS V14.01,2013-10-03 09:19:00,
2013-10-03 04:21:00,72.3,71.1,29.09,SSE,167,8.3,8.7,96,0.00,,CLR,0.00,VWS V14.01,2013-10-03 09:21:00,
2013-10-03 04:22:00,72.3,71.1,29.09,SSE,165,5.8,6.3,96,0.00,,CLR,0.00,VWS V14.01,2013-10-03 09:22:00,
2013-10-03 04:23:00,72.3,71.7,29.09,SSE,157,5.8,8.1,98,0.00,,CLR,0.00,VWS V14.01,2013-10-03 09:23:00,
2013-10-03 04:24:00,72.5,71.9,29.09,SE,143,5.4,6.3,98,0.00,,CLR,0.00,VWS V14.01,2013-10-03 09:24:00,
2013-10-03 04:26:00,72.5,71.9,29.09,South,176,6.3,6.3,98,0.00,,CLR,0.00,VWS V14.01,2013-10-03 09:26:00,
2013-10-03 04:27:00,72.5,71.9,29.09,South,174,5.8,6.3,98,0.00,,CLR,0.00,VWS V14.01,2013-10-03 09:27:00,
2013-10-03 04:28:00,72.5,71.9,29.09,South,175,7.6,8.7,98,0.00,,CLR,0.00,VWS V14.01,2013-10-03 09:28:00,
2013-10-03 04:29:00,72.5,71.9,29.09,South,184,8.1,10.5,98,0.00,,CLR,0.00,VWS V14.01,2013-10-03 09:29:00,
2013-10-03 04:32:00,72.5,71.9,29.09,South,170,8.3,8.3,98,0.00,,CLR,0.00,VWS V14.01,2013-10-03 09:32:00,
2013-10-03 04:34:00,72.5,71.9,29.09,South,171,7.6,8.3,98,0.00,,CLR,0.00,VWS V14.01,2013-10-03 09:34:00,
2013-10-03 04:35:00,72.5,71.9,29.09,SSE,163,7.6,7.6,98,0.00,,CLR,0.00,VWS V14.01,2013-10-03 09:35:00,
2013-10-03 04:37:00,72.5,71.9,29.09,SSE,163,5.8,8.3,98,0.00,,CLR,0.00,VWS V14.01,2013-10-03 09:37:00,
2013-10-03 04:38:00,72.3,71.7,29.09,SSE,153,3.6,8.1,98,0.00,,CLR,0.00,VWS V14.01,2013-10-03 09:38:00,
2013-10-03 04:40:00,72.3,71.7,29.09,SSE,155,6.3,8.3,98,0.00,,CLR,0.00,VWS V14.01,2013-10-03 09:40:00,
2013-10-03 04:42:00,72.3,72.3,29.09,South,181,5.4,8.7,100,0.00,,CLR,0.00,VWS V14.01,2013-10-03 09:42:00,
2013-10-03 04:43:00,72.3,72.3,29.09,South,180,5.4,7.2,100,0.00,,CLR,0.00,VWS V14.01,2013-10-03 09:43:00,
2013-10-03 04:44:00,72.3,72.3,29.09,SSE,164,8.3,8.7,100,0.00,,CLR,0.00,VWS V14.01,2013-10-03 09:44:00,
2013-10-03 04:45:00,72.3,72.3,29.09,SSE,150,10.1,10.1,100,0.00,,CLR,0.00,VWS V14.01,2013-10-03 09:45:00,
2013-10-03 04:48:00,72.3,72.3,29.09,WSW,237,6.3,8.7,100,0.00,,CLR,0.00,VWS V14.01,2013-10-03 09:48:00,
2013-10-03 04:50:00,72.3,72.3,29.09,SSE,154,3.6,6.3,100,0.00,,CLR,0.00,VWS V14.01,2013-10-03 09:50:00,
2013-10-03 04:51:00,72.3,72.3,29.09,SSE,168,5.8,5.8,100,0.00,,CLR,0.00,VWS V14.01,2013-10-03 09:51:00,
2013-10-03 04:53:00,72.1,72.2,29.09,South,169,8.1,8.1,100,0.00,,CLR,0.00,VWS V14.01,2013-10-03 09:53:00,
2013-10-03 04:55:00,72.1,72.2,29.09,SSE,160,5.8,6.3,100,0.00,,CLR,0.00,VWS V14.01,2013-10-03 09:55:00,
2013-10-03 04:56:00,72.1,72.2,29.09,SSE,157,7.6,7.6,100,0.00,,CLR,0.00,VWS V14.01,2013-10-03 09:56:00,
2013-10-03 04:57:00,72.1,72.2,29.09,SSE,165,3.1,7.6,100,0.00,,CLR,0.00,VWS V14.01,2013-10-03 09:57:00,
2013-10-03 04:58:00,72.1,72.2,29.09,SSE,164,6.3,7.6,100,0.00,,CLR,0.00,VWS V14.01,2013-10-03 09:58:00,
2013-10-03 04:59:00,72.0,72.0,29.09,South,178,4.9,6.3,100,0.00,,CLR,0.00,VWS V14.01,2013-10-03 09:59:00,
2013-10-03 05:01:00,72.0,72.0,29.09,South,185,6.3,6.3,100,0.00,,CLR,0.00,VWS V14.01,2013-10-03 10:01:00,
2013-10-03 05:02:00,72.0,72.0,29.09,SSW,195,5.4,6.3,100,0.00,,CLR,0.00,VWS V14.01,2013-10-03 10:02:00,
2013-10-03 05:03:00,72.0,72.0,29.09,South,180,6.7,7.6,100,0.00,,CLR,0.00,VWS V14.01,2013-10-03 10:03:00,
2013-10-03 05:04:00,72.0,72.0,29.09,South,177,5.8,7.6,100,0.00,,CLR,0.00,VWS V14.01,2013-10-03 10:04:00,
2013-10-03 05:06:00,72.0,72.0,29.09,SSE,166,5.8,5.8,100,0.00,,CLR,0.00,VWS V14.01,2013-10-03 10:06:00,
2013-10-03 05:08:00,72.1,72.2,29.09,South,169,6.3,6.3,100,0.00,,CLR,0.00,VWS V14.01,2013-10-03 10:08:00,
2013-10-03 05:10:00,72.1,72.2,29.09,South,171,4.0,5.8,100,0.00,,CLR,0.00,VWS V14.01,2013-10-03 10:10:00,
2013-10-03 05:12:00,72.1,72.2,29.09,SSE,158,5.4,7.6,100,0.00,,CLR,0.00,VWS V14.01,2013-10-03 10:12:00,
2013-10-03 05:13:00,72.1,72.2,29.09,SSW,198,5.8,5.8,100,0.00,,CLR,0.00,VWS V14.01,2013-10-03 10:13:00,
2013-10-03 05:14:00,72.3,72.3,29.09,South,177,5.4,7.6,100,0.00,,CLR,0.00,VWS V14.01,2013-10-03 10:14:00,
2013-10-03 05:15:00,72.3,72.3,29.09,SSW,196,5.4,5.8,100,0.00,,CLR,0.00,VWS V14.01,2013-10-03 10:15:00,
2013-10-03 05:16:00,72.3,72.3,29.09,SSW,197,6.3,6.7,100,0.00,,CLR,0.00,VWS V14.01,2013-10-03 10:16:00,
2013-10-03 05:17:00,72.3,72.3,29.09,South,188,7.6,7.6,100,0.00,,CLR,0.00,VWS V14.01,2013-10-03 10:17:00,
2013-10-03 05:19:00,72.3,72.3,29.09,SSW,204,6.3,8.1,100,0.08,,CLR,0.08,VWS V14.01,2013-10-03 10:19:00,
2013-10-03 05:20:00,72.3,72.3,29.09,SSE,158,5.4,6.7,100,0.08,,CLR,0.08,VWS V14.01,2013-10-03 10:20:00,
2013-10-03 05:22:00,72.3,72.3,29.09,South,182,4.5,8.1,100,0.08,,CLR,0.08,VWS V14.01,2013-10-03 10:22:00,
2013-10-03 05:25:00,72.1,72.2,29.09,South,172,5.8,5.8,100,0.08,,CLR,0.08,VWS V14.01,2013-10-03 10:25:00,
2013-10-03 05:27:00,72.1,72.2,29.09,SSW,194,8.3,8.3,100,0.08,,CLR,0.08,VWS V14.01,2013-10-03 10:27:00,
2013-10-03 05:28:00,72.1,72.2,29.09,South,179,7.6,7.6,100,0.08,,CLR,0.08,VWS V14.01,2013-10-03 10:28:00,
2013-10-03 05:29:00,72.0,72.0,29.09,South,177,7.6,7.6,100,0.08,,CLR,0.08,VWS V14.01,2013-10-03 10:29:00,
2013-10-03 05:30:00,72.0,72.0,29.09,South,181,6.7,6.7,100,0.08,,CLR,0.08,VWS V14.01,2013-10-03 10:30:00,
2013-10-03 05:31:00,72.0,72.0,29.09,South,177,7.6,7.6,100,0.08,,CLR,0.08,VWS V14.01,2013-10-03 10:31:00,
2013-10-03 05:33:00,72.0,72.0,29.09,South,180,7.6,7.6,100,0.08,,CLR,0.08,VWS V14.01,2013-10-03 10:33:00,
2013-10-03 05:34:00,72.0,72.0,29.09,South,184,5.4,7.6,100,0.08,,CLR,0.08,VWS V14.01,2013-10-03 10:34:00,
2013-10-03 05:35:00,72.0,72.0,29.09,South,191,8.1,9.2,100,0.08,,CLR,0.08,VWS V14.01,2013-10-03 10:35:00,
2013-10-03 05:36:00,72.0,72.0,29.09,South,186,5.8,5.8,100,0.08,,CLR,0.08,VWS V14.01,2013-10-03 10:36:00,
2013-10-03 05:38:00,72.0,72.0,29.09,South,175,6.7,8.7,100,0.08,,CLR,0.08,VWS V14.01,2013-10-03 10:38:00,
2013-10-03 05:41:00,72.0,72.0,29.09,SSW,192,6.3,6.3,100,0.08,,CLR,0.08,VWS V14.01,2013-10-03 10:41:00,
2013-10-03 05:42:00,71.8,71.8,29.09,South,176,5.8,6.3,100,0.08,,CLR,0.08,VWS V14.01,2013-10-03 10:42:00,
2013-10-03 05:44:00,72.0,72.0,29.09,South,171,8.1,8.1,100,0.08,,CLR,0.08,VWS V14.01,2013-10-03 10:44:00,
2013-10-03 05:46:00,72.0,72.0,29.09,South,191,5.8,6.3,100,0.08,,CLR,0.08,VWS V14.01,2013-10-03 10:46:00,
2013-10-03 05:47:00,72.0,72.0,29.09,SSE,167,6.3,6.3,100,0.08,,CLR,0.08,VWS V14.01,2013-10-03 10:47:00,
2013-10-03 05:48:00,72.0,72.0,29.09,SSW,198,8.7,8.7,100,0.08,,CLR,0.08,VWS V14.01,2013-10-03 10:48:00,
2013-10-03 05:49:00,72.0,72.0,29.09,South,185,6.3,8.7,100,0.08,,CLR,0.08,VWS V14.01,2013-10-03 10:49:00,
2013-10-03 05:50:00,72.0,72.0,29.09,SSE,166,5.8,6.3,100,0.08,,CLR,0.08,VWS V14.01,2013-10-03 10:50:00,
2013-10-03 05:51:00,72.0,72.0,29.09,SSE,167,5.8,7.6,100,0.08,,CLR,0.08,VWS V14.01,2013-10-03 10:51:00,
2013-10-03 05:52:00,72.0,72.0,29.09,SSE,167,5.8,7.6,100,0.08,,CLR,0.08,VWS V14.01,2013-10-03 10:52:00,
2013-10-03 05:53:00,72.0,72.0,29.09,South,177,5.8,6.3,100,0.08,,CLR,0.08,VWS V14.01,2013-10-03 10:53:00,
2013-10-03 05:54:00,72.0,72.0,29.09,SSW,201,6.3,8.3,100,0.08,,CLR,0.08,VWS V14.01,2013-10-03 10:54:00,
2013-10-03 05:56:00,72.0,72.0,29.09,SSE,167,6.7,7.6,100,0.08,,CLR,0.08,VWS V14.01,2013-10-03 10:56:00,
2013-10-03 05:57:00,72.0,72.0,29.09,SSE,164,6.3,7.6,100,0.08,,CLR,0.08,VWS V14.01,2013-10-03 10:57:00,
2013-10-03 05:59:00,72.0,72.0,29.09,SW,217,5.4,6.3,100,0.08,,CLR,0.08,VWS V14.01,2013-10-03 10:59:00,
2013-10-03 06:00:00,71.8,71.8,29.09,South,184,6.3,8.1,100,0.08,,CLR,0.08,VWS V14.01,2013-10-03 11:00:00,
2013-10-03 06:01:00,71.8,71.8,29.09,South,174,5.8,5.8,100,0.08,,CLR,0.08,VWS V14.01,2013-10-03 11:01:00,
2013-10-03 06:02:00,72.0,72.0,29.09,South,169,5.4,5.4,100,0.08,,CLR,0.08,VWS V14.01,2013-10-03 11:02:00,
2013-10-03 06:03:00,72.0,72.0,29.09,SSW,205,8.1,8.1,100,0.08,,CLR,0.08,VWS V14.01,2013-10-03 11:03:00,
2013-10-03 06:05:00,72.0,72.0,29.09,SSW,200,6.3,8.3,100,0.08,,CLR,0.08,VWS V14.01,2013-10-03 11:05:00,
2013-10-03 06:06:00,72.0,72.0,29.09,SSE,160,5.8,5.8,100,0.08,,CLR,0.08,VWS V14.01,2013-10-03 11:06:00,
2013-10-03 06:07:00,72.1,72.2,29.09,South,173,8.1,8.1,100,0.08,,CLR,0.08,VWS V14.01,2013-10-03 11:07:00,
2013-10-03 06:08:00,72.1,72.2,29.09,South,170,5.8,8.3,100,0.08,,CLR,0.08,VWS V14.01,2013-10-03 11:08:00,
2013-10-03 06:10:00,72.1,72.2,29.09,SSE,156,8.1,8.3,100,0.08,,CLR,0.08,VWS V14.01,2013-10-03 11:10:00,
2013-10-03 06:11:00,72.1,72.2,29.09,South,172,7.6,7.6,100,0.08,,CLR,0.08,VWS V14.01,2013-10-03 11:11:00,
2013-10-03 06:12:00,72.3,72.3,29.09,SSE,157,5.8,5.8,100,0.08,,CLR,0.08,VWS V14.01,2013-10-03 11:12:00,
2013-10-03 06:13:00,72.3,72.3,29.09,South,188,5.4,5.8,100,0.08,,CLR,0.08,VWS V14.01,2013-10-03 11:13:00,
2013-10-03 06:14:00,72.3,72.3,29.09,SSE,166,10.1,10.1,100,0.08,,CLR,0.08,VWS V14.01,2013-10-03 11:14:00,
2013-10-03 06:17:00,72.3,72.3,29.09,South,185,6.3,6.3,100,0.08,,CLR,0.08,VWS V14.01,2013-10-03 11:17:00,
2013-10-03 06:18:00,72.3,72.3,29.09,South,179,8.3,8.3,100,0.08,,CLR,0.08,VWS V14.01,2013-10-03 11:18:00,
2013-10-03 06:19:00,72.3,72.3,29.09,SSE,166,8.1,8.3,100,0.08,,CLR,0.08,VWS V14.01,2013-10-03 11:19:00,
2013-10-03 06:20:00,72.3,72.3,29.09,SSW,198,5.4,6.3,100,0.00,,CLR,0.08,VWS V14.01,2013-10-03 11:20:00,
2013-10-03 06:22:00,72.3,72.3,29.09,South,172,5.8,8.1,100,0.00,,CLR,0.08,VWS V14.01,2013-10-03 11:22:00,
2013-10-03 06:23:00,72.3,72.3,29.09,SSW,211,7.2,8.1,100,0.00,,CLR,0.08,VWS V14.01,2013-10-03 11:23:00,
2013-10-03 06:24:00,72.3,72.3,29.09,South,174,5.4,7.2,100,0.00,,CLR,0.08,VWS V14.01,2013-10-03 11:24:00,
2013-10-03 06:25:00,72.3,72.3,29.09,SSE,148,7.6,7.6,100,0.00,,CLR,0.08,VWS V14.01,2013-10-03 11:25:00,
2013-10-03 06:27:00,72.3,72.3,29.09,SSE,165,7.6,8.1,100,0.00,,CLR,0.08,VWS V14.01,2013-10-03 11:27:00,
2013-10-03 06:28:00,72.3,72.3,29.09,SSW,192,4.9,4.9,100,0.00,,CLR,0.08,VWS V14.01,2013-10-03 11:28:00,
2013-10-03 06:29:00,72.3,72.3,29.09,South,178,6.3,6.3,100,0.00,,CLR,0.08,VWS V14.01,2013-10-03 11:29:00,
2013-10-03 06:30:00,72.3,72.3,29.09,SSE,165,6.3,6.3,100,0.00,,CLR,0.08,VWS V14.01,2013-10-03 11:30:00,
2013-10-03 06:35:00,72.1,72.2,29.09,South,190,4.0,8.3,100,0.00,,CLR,0.08,VWS V14.01,2013-10-03 11:35:00,
2013-10-03 06:36:00,72.1,72.2,29.09,South,189,6.7,8.3,100,0.00,,CLR,0.08,VWS V14.01,2013-10-03 11:36:00,
2013-10-03 06:37:00,72.1,72.2,29.09,South,187,7.2,7.2,100,0.00,,CLR,0.08,VWS V14.01,2013-10-03 11:37:00,
2013-10-03 06:40:00,72.1,72.2,29.09,South,179,8.7,10.1,100,0.00,,CLR,0.08,VWS V14.01,2013-10-03 11:40:00,
2013-10-03 06:41:00,72.1,72.2,29.09,South,170,6.3,8.7,100,0.00,,CLR,0.08,VWS V14.01,2013-10-03 11:41:00,
2013-10-03 06:42:00,72.1,72.2,29.09,SSW,197,5.8,7.6,100,0.00,,CLR,0.08,VWS V14.01,2013-10-03 11:42:00,
2013-10-03 06:45:00,72.0,72.0,29.09,South,169,3.6,6.3,100,0.00,,CLR,0.08,VWS V14.01,2013-10-03 11:45:00,
2013-10-03 06:47:00,72.0,72.0,29.09,South,178,5.8,6.3,100,0.00,,CLR,0.08,VWS V14.01,2013-10-03 11:47:00,
2013-10-03 06:51:00,72.0,72.0,29.09,East,88,4.5,8.1,100,0.00,,CLR,0.08,VWS V14.01,2013-10-03 11:51:00,
2013-10-03 06:52:00,72.0,72.0,29.09,SSE,160,5.4,6.3,100,0.00,,CLR,0.08,VWS V14.01,2013-10-03 11:52:00,
2013-10-03 06:53:00,72.0,72.0,29.09,SSW,197,8.7,8.7,100,0.00,,CLR,0.08,VWS V14.01,2013-10-03 11:53:00,
2013-10-03 06:54:00,72.0,72.0,29.09,SSW,203,8.1,8.3,100,0.00,,CLR,0.08,VWS V14.01,2013-10-03 11:54:00,
2013-10-03 06:57:00,72.0,72.0,29.09,South,183,6.3,6.3,100,0.00,,CLR,0.08,VWS V14.01,2013-10-03 11:57:00,
2013-10-03 06:58:00,72.0,72.0,29.09,SW,219,6.3,8.3,100,0.00,,CLR,0.08,VWS V14.01,2013-10-03 11:58:00,
2013-10-03 06:59:00,72.0,72.0,29.09,SW,216,5.8,5.8,100,0.00,,CLR,0.08,VWS V14.01,2013-10-03 11:59:00,
2013-10-03 07:00:00,71.8,71.8,29.09,South,184,7.2,7.2,100,0.00,,CLR,0.08,VWS V14.01,2013-10-03 12:00:00,
2013-10-03 07:02:00,71.8,71.8,29.09,SW,217,5.8,5.8,100,0.00,,CLR,0.08,VWS V14.01,2013-10-03 12:02:00,
2013-10-03 07:03:00,71.8,71.8,29.09,SSE,162,7.6,7.6,100,0.00,,CLR,0.08,VWS V14.01,2013-10-03 12:03:00,
2013-10-03 07:04:00,71.8,71.8,29.09,South,184,8.1,8.1,100,0.00,,CLR,0.08,VWS V14.01,2013-10-03 12:04:00,
2013-10-03 07:06:00,71.8,71.8,29.09,South,189,8.3,8.3,100,0.00,,CLR,0.08,VWS V14.01,2013-10-03 12:06:00,
2013-10-03 07:07:00,71.8,71.8,29.09,South,174,8.3,8.3,100,0.00,,CLR,0.08,VWS V14.01,2013-10-03 12:07:00,
2013-10-03 07:09:00,71.6,71.6,29.09,SSW,196,8.1,8.3,100,0.00,,CLR,0.08,VWS V14.01,2013-10-03 12:09:00,
2013-10-03 07:10:00,71.6,71.6,29.09,SSW,197,8.7,8.7,100,0.00,,CLR,0.08,VWS V14.01,2013-10-03 12:10:00,
2013-10-03 07:12:00,71.6,71.6,29.09,South,172,4.9,7.6,100,0.00,,CLR,0.08,VWS V14.01,2013-10-03 12:12:00,
2013-10-03 07:13:00,71.6,71.0,29.09,South,183,6.3,8.7,98,0.00,,CLR,0.08,VWS V14.01,2013-10-03 12:13:00,
2013-10-03 07:14:00,71.6,71.0,29.09,South,175,6.7,7.6,98,0.00,,CLR,0.08,VWS V14.01,2013-10-03 12:14:00,
2013-10-03 07:16:00,71.4,71.4,29.09,South,180,5.8,5.8,100,0.00,,CLR,0.08,VWS V14.01,2013-10-03 12:16:00,
2013-10-03 07:18:00,71.4,70.8,29.09,SSE,148,5.4,8.3,98,0.00,,CLR,0.08,VWS V14.01,2013-10-03 12:18:00,
2013-10-03 07:19:00,71.4,70.8,29.09,South,173,6.7,7.2,98,0.00,,CLR,0.08,VWS V14.01,2013-10-03 12:19:00,
2013-10-03 07:22:00,71.1,70.5,29.09,South,187,6.3,7.6,98,0.00,,CLR,0.08,VWS V14.01,2013-10-03 12:22:00,
2013-10-03 07:23:00,71.1,70.5,29.09,South,174,6.3,7.6,98,0.00,,CLR,0.08,VWS V14.01,2013-10-03 12:23:00,
2013-10-03 07:24:00,71.1,70.5,29.09,South,169,6.7,7.6,98,0.00,,CLR,0.08,VWS V14.01,2013-10-03 12:24:00,
2013-10-03 07:26:00,70.9,70.3,29.09,SSE,157,6.3,8.3,98,0.00,,CLR,0.08,VWS V14.01,2013-10-03 12:26:00,
2013-10-03 07:28:00,70.9,70.9,29.09,SSE,166,6.3,8.3,100,0.00,,CLR,0.08,VWS V14.01,2013-10-03 12:28:00,
2013-10-03 07:29:00,70.9,70.9,29.09,SSW,205,4.0,8.3,100,0.00,,CLR,0.08,VWS V14.01,2013-10-03 12:29:00,
2013-10-03 07:30:00,70.9,70.9,29.09,SSW,199,8.1,8.3,100,0.00,,CLR,0.08,VWS V14.01,2013-10-03 12:30:00,
2013-10-03 07:31:00,70.9,70.9,29.09,South,183,8.3,8.3,100,0.00,,CLR,0.08,VWS V14.01,2013-10-03 12:31:00,
2013-10-03 07:35:00,70.9,70.9,29.09,SSE,150,8.1,8.3,100,0.00,,CLR,0.08,VWS V14.01,2013-10-03 12:35:00,
2013-10-03 07:36:00,70.9,70.9,29.09,South,174,5.4,6.3,100,0.00,,CLR,0.08,VWS V14.01,2013-10-03 12:36:00,
2013-10-03 07:37:00,70.9,70.9,29.09,SW,223,7.6,7.6,100,0.00,,CLR,0.08,VWS V14.01,2013-10-03 12:37:00,
2013-10-03 07:39:00,70.9,70.9,29.09,SSW,198,6.3,8.1,100,0.00,,CLR,0.08,VWS V14.01,2013-10-03 12:39:00,
2013-10-03 07:40:00,71.1,71.1,29.09,SSW,199,7.6,8.3,100,0.00,,CLR,0.08,VWS V14.01,2013-10-03 12:40:00,
2013-10-03 07:41:00,71.1,71.1,29.09,SSE,158,7.6,7.6,100,0.00,,CLR,0.08,VWS V14.01,2013-10-03 12:41:00,
2013-10-03 07:42:00,71.1,71.1,29.09,SSE,159,8.1,8.3,100,0.00,,CLR,0.08,VWS V14.01,2013-10-03 12:42:00,
2013-10-03 07:43:00,71.1,71.1,29.09,SSW,212,10.1,10.1,100,0.00,,CLR,0.08,VWS V14.01,2013-10-03 12:43:00,
2013-10-03 07:45:00,71.1,71.1,29.09,SSW,205,7.6,8.7,100,0.00,,CLR,0.08,VWS V14.01,2013-10-03 12:45:00,
2013-10-03 07:46:00,71.1,71.1,29.09,SSW,209,8.3,8.7,100,0.00,,CLR,0.08,VWS V14.01,2013-10-03 12:46:00,
2013-10-03 07:47:00,71.1,71.1,29.09,South,179,7.6,7.6,100,0.00,,CLR,0.08,VWS V14.01,2013-10-03 12:47:00,
2013-10-03 07:48:00,71.1,71.1,29.09,South,180,8.3,9.2,100,0.00,,CLR,0.08,VWS V14.01,2013-10-03 12:48:00,
2013-10-03 07:51:00,71.2,71.2,29.09,SSW,207,7.6,10.1,100,0.00,,CLR,0.08,VWS V14.01,2013-10-03 12:51:00,
2013-10-03 07:52:00,71.2,71.2,29.09,SSW,206,3.6,8.7,100,0.00,,CLR,0.08,VWS V14.01,2013-10-03 12:52:00,
2013-10-03 07:53:00,71.2,71.2,29.09,SW,226,7.6,8.7,100,0.00,,CLR,0.08,VWS V14.01,2013-10-03 12:53:00,
2013-10-03 07:54:00,71.2,71.2,29.09,South,180,7.6,7.6,100,0.00,,CLR,0.08,VWS V14.01,2013-10-03 12:54:00,
2013-10-03 07:56:00,71.2,71.2,29.09,SSW,198,8.7,8.7,100,0.00,,CLR,0.08,VWS V14.01,2013-10-03 12:56:00,
2013-10-03 07:57:00,71.2,71.2,29.09,SSW,207,7.6,9.2,100,0.00,,CLR,0.08,VWS V14.01,2013-10-03 12:57:00,
2013-10-03 07:58:00,71.4,71.4,29.09,SSW,206,7.6,9.2,100,0.00,,CLR,0.08,VWS V14.01,2013-10-03 12:58:00,
2013-10-03 08:00:00,71.4,71.4,29.09,SSW,203,4.0,8.7,100,0.00,,CLR,0.08,VWS V14.01,2013-10-03 13:00:00,
2013-10-03 08:02:00,71.4,71.4,29.09,SW,218,8.3,8.3,100,0.00,,CLR,0.08,VWS V14.01,2013-10-03 13:02:00,
2013-10-03 08:03:00,71.4,71.4,29.09,SSW,193,8.1,10.1,100,0.00,,CLR,0.08,VWS V14.01,2013-10-03 13:03:00,
2013-10-03 08:04:00,71.4,71.4,29.09,South,169,4.9,10.1,100,0.00,,CLR,0.08,VWS V14.01,2013-10-03 13:04:00,
2013-10-03 08:05:00,71.6,71.0,29.09,SSE,160,4.0,6.3,98,0.00,,CLR,0.08,VWS V14.01,2013-10-03 13:05:00,
2013-10-03 08:06:00,71.6,71.0,29.09,SSE,167,8.7,8.7,98,0.00,,CLR,0.08,VWS V14.01,2013-10-03 13:06:00,
2013-10-03 08:07:00,71.6,71.0,29.09,SSW,206,8.1,8.7,98,0.00,,CLR,0.08,VWS V14.01,2013-10-03 13:07:00,
2013-10-03 08:08:00,71.6,70.4,29.09,SW,229,5.8,6.3,96,0.00,,CLR,0.08,VWS V14.01,2013-10-03 13:08:00,
2013-10-03 08:11:00,71.8,70.6,29.09,SSW,201,5.4,5.8,96,0.00,,CLR,0.08,VWS V14.01,2013-10-03 13:11:00,
2013-10-03 08:12:00,71.8,70.6,29.09,South,186,6.3,6.3,96,0.00,,CLR,0.08,VWS V14.01,2013-10-03 13:12:00,
2013-10-03 08:13:00,71.8,70.0,29.09,SSW,208,7.6,8.3,94,0.00,,CLR,0.08,VWS V14.01,2013-10-03 13:13:00,
2013-10-03 08:14:00,71.8,70.0,29.09,SSW,198,5.8,8.3,94,0.00,,CLR,0.08,VWS V14.01,2013-10-03 13:14:00,
2013-10-03 08:16:00,72.0,70.1,29.09,SSW,200,4.0,8.7,94,0.00,,CLR,0.08,VWS V14.01,2013-10-03 13:16:00,
2013-10-03 08:17:00,72.0,70.1,29.09,South,172,4.9,8.3,94,0.00,,CLR,0.08,VWS V14.01,2013-10-03 13:17:00,
2013-10-03 08:18:00,72.0,69.5,29.09,SSW,206,7.6,8.3,92,0.00,,CLR,0.08,VWS V14.01,2013-10-03 13:18:00,
2013-10-03 08:19:00,72.0,69.5,29.09,South,182,6.3,8.3,92,0.00,,CLR,0.08,VWS V14.01,2013-10-03 13:19:00,
2013-10-03 08:20:00,72.0,68.9,29.09,SSW,207,5.8,8.3,90,0.00,,CLR,0.08,VWS V14.01,2013-10-03 13:20:00,
2013-10-03 08:22:00,72.0,68.9,29.09,SW,222,6.3,6.7,90,0.00,,CLR,0.08,VWS V14.01,2013-10-03 13:22:00,
2013-10-03 08:23:00,72.0,68.9,29.09,South,170,5.4,6.7,90,0.00,,CLR,0.08,VWS V14.01,2013-10-03 13:23:00,
2013-10-03 08:24:00,72.0,68.9,29.09,SSW,198,5.8,5.8,90,0.00,,CLR,0.08,VWS V14.01,2013-10-03 13:24:00,
2013-10-03 08:25:00,72.1,68.4,29.09,South,172,4.0,5.8,88,0.00,,CLR,0.08,VWS V14.01,2013-10-03 13:25:00,
2013-10-03 08:28:00,72.1,67.7,29.09,SSW,194,8.3,8.3,86,0.00,,CLR,0.08,VWS V14.01,2013-10-03 13:28:00,
2013-10-03 08:30:00,72.1,67.7,29.09,South,177,6.3,6.3,86,0.00,,CLR,0.08,VWS V14.01,2013-10-03 13:30:00,
2013-10-03 08:33:00,72.1,67.0,29.09,South,187,6.3,6.3,84,0.00,,CLR,0.08,VWS V14.01,2013-10-03 13:33:00,
2013-10-03 08:34:00,72.1,67.0,29.09,SW,235,3.6,6.3,84,0.00,,CLR,0.08,VWS V14.01,2013-10-03 13:34:00,
2013-10-03 08:35:00,72.3,67.2,29.09,SW,218,5.4,5.4,84,0.00,,CLR,0.08,VWS V14.01,2013-10-03 13:35:00,
2013-10-03 08:38:00,72.3,67.2,29.09,SW,230,5.8,5.8,84,0.00,,CLR,0.08,VWS V14.01,2013-10-03 13:38:00,
2013-10-03 08:39:00,72.3,66.5,29.09,South,189,5.8,7.6,82,0.00,,CLR,0.08,VWS V14.01,2013-10-03 13:39:00,
2013-10-03 08:40:00,72.5,66.7,29.09,SSW,202,7.6,7.6,82,0.00,,CLR,0.08,VWS V14.01,2013-10-03 13:40:00,
2013-10-03 08:42:00,72.5,66.7,29.09,SW,231,5.8,5.8,82,0.00,,CLR,0.08,VWS V14.01,2013-10-03 13:42:00,
2013-10-03 08:44:00,72.7,66.2,29.09,SW,221,6.7,7.2,80,0.00,,CLR,0.08,VWS V14.01,2013-10-03 13:44:00,
2013-10-03 08:45:00,72.9,66.3,29.09,SSE,160,4.9,4.9,80,0.00,,CLR,0.08,VWS V14.01,2013-10-03 13:45:00,
2013-10-03 08:46:00,72.9,66.3,29.09,SW,227,6.3,6.3,80,0.00,,CLR,0.08,VWS V14.01,2013-10-03 13:46:00,
2013-10-03 08:49:00,73.0,65.8,29.09,SW,215,8.1,8.3,78,0.00,,CLR,0.08,VWS V14.01,2013-10-03 13:49:00,
2013-10-03 08:50:00,73.0,65.0,29.09,SSW,204,7.6,8.3,76,0.00,,CLR,0.08,VWS V14.01,2013-10-03 13:50:00,
2013-10-03 08:51:00,73.0,63.5,29.09,South,189,8.7,8.7,72,0.00,,CLR,0.08,VWS V14.01,2013-10-03 13:51:00,
2013-10-03 08:52:00,73.0,63.5,29.09,WSW,237,9.6,9.6,72,0.00,,CLR,0.08,VWS V14.01,2013-10-03 13:52:00,
2013-10-03 08:55:00,73.2,62.9,29.09,SW,214,6.7,10.5,70,0.00,,CLR,0.08,VWS V14.01,2013-10-03 13:55:00,
2013-10-03 08:56:00,73.2,62.9,29.09,SSW,203,8.7,9.2,70,0.00,,CLR,0.08,VWS V14.01,2013-10-03 13:56:00,
2013-10-03 08:57:00,73.2,62.0,29.09,SW,225,7.6,8.7,68,0.00,,CLR,0.08,VWS V14.01,2013-10-03 13:57:00,
2013-10-03 08:58:00,73.2,62.0,29.09,SSW,201,6.7,6.7,68,0.00,,CLR,0.08,VWS V14.01,2013-10-03 13:58:00,
2013-10-03 09:00:00,73.6,62.4,29.09,SSW,193,6.3,7.6,68,0.00,,CLR,0.08,VWS V14.01,2013-10-03 14:00:00,
2013-10-03 09:01:00,73.6,62.4,29.09,SW,235,11.0,11.0,68,0.00,,CLR,0.08,VWS V14.01,2013-10-03 14:01:00,
2013-10-03 09:02:00,73.6,61.5,29.09,South,182,3.6,11.0,66,0.00,,CLR,0.08,VWS V14.01,2013-10-03 14:02:00,
2013-10-03 09:04:00,73.6,61.5,29.09,SSW,212,11.4,11.4,66,0.00,,CLR,0.08,VWS V14.01,2013-10-03 14:04:00,
2013-10-03 09:06:00,73.6,60.7,29.09,SSW,211,10.1,10.1,64,0.00,,CLR,0.08,VWS V14.01,2013-10-03 14:06:00,
2013-10-03 09:07:00,73.8,60.8,29.09,SSE,165,5.4,10.1,64,0.00,,CLR,0.08,VWS V14.01,2013-10-03 14:07:00,
2013-10-03 09:08:00,73.8,60.8,29.09,SSW,203,8.1,10.1,64,0.00,,CLR,0.08,VWS V14.01,2013-10-03 14:08:00,
2013-10-03 09:09:00,73.8,60.8,29.12,SW,223,6.3,8.3,64,0.00,,CLR,0.08,VWS V14.01,2013-10-03 14:09:00,
2013-10-03 09:12:00,74.1,61.2,29.12,SW,230,10.1,10.1,64,0.00,,CLR,0.08,VWS V14.01,2013-10-03 14:12:00,
2013-10-03 09:13:00,74.3,60.5,29.12,SE,144,7.6,10.1,62,0.00,,CLR,0.08,VWS V14.01,2013-10-03 14:13:00,
2013-10-03 09:14:00,74.3,60.5,29.12,SW,225,6.3,10.1,62,0.00,,CLR,0.08,VWS V14.01,2013-10-03 14:14:00,
2013-10-03 09:15:00,74.3,60.5,29.12,SSW,211,5.4,10.1,62,0.00,,CLR,0.08,VWS V14.01,2013-10-03 14:15:00,
2013-10-03 09:17:00,74.8,61.0,29.12,SSW,193,5.4,8.1,62,0.00,,CLR,0.08,VWS V14.01,2013-10-03 14:17:00,
2013-10-03 09:19:00,75.0,60.2,29.12,SSW,210,8.1,8.3,60,0.00,,CLR,0.08,VWS V14.01,2013-10-03 14:19:00,
2013-10-03 09:21:00,75.6,57.8,29.12,SW,219,7.6,8.1,54,0.00,,CLR,0.08,VWS V14.01,2013-10-03 14:21:00,
2013-10-03 09:22:00,75.6,57.8,29.12,SSW,192,8.1,8.1,54,0.00,,CLR,0.08,VWS V14.01,2013-10-03 14:22:00,
2013-10-03 09:23:00,75.9,57.0,29.12,SW,215,6.3,6.3,52,0.00,,CLR,0.08,VWS V14.01,2013-10-03 14:23:00,
2013-10-03 09:24:00,76.1,56.1,29.12,SSW,206,5.4,8.7,50,0.00,,CLR,0.08,VWS V14.01,2013-10-03 14:24:00,
2013-10-03 09:27:00,75.9,53.7,29.12,SSW,201,11.0,11.0,46,0.00,,CLR,0.00,VWS V14.01,2013-10-03 14:27:00,
2013-10-03 09:28:00,75.9,53.7,29.12,SW,226,8.3,11.0,46,0.00,,CLR,0.08,VWS V14.01,2013-10-03 14:28:00,
2013-10-03 09:29:00,76.3,52.8,29.12,South,182,8.1,10.1,44,0.00,,CLR,0.08,VWS V14.01,2013-10-03 14:29:00,
2013-10-03 09:32:00,76.5,53.0,29.12,SW,214,10.1,10.1,44,0.00,,CLR,0.08,VWS V14.01,2013-10-03 14:32:00,
2013-10-03 09:33:00,76.6,53.1,29.12,South,180,5.8,10.1,44,0.00,,CLR,0.08,VWS V14.01,2013-10-03 14:33:00,
2013-10-03 09:34:00,76.8,53.3,29.12,SSW,210,8.3,10.5,44,0.00,,CLR,0.08,VWS V14.01,2013-10-03 14:34:00,
2013-10-03 09:35:00,77.0,52.2,29.12,SSW,208,8.7,8.7,42,0.00,,CLR,0.08,VWS V14.01,2013-10-03 14:35:00,
2013-10-03 09:38:00,77.4,52.5,29.12,SSW,209,8.1,8.3,42,0.00,,CLR,0.08,VWS V14.01,2013-10-03 14:38:00,
2013-10-03 09:39:00,77.4,52.5,29.12,SSW,209,5.4,5.4,42,0.00,,CLR,0.08,VWS V14.01,2013-10-03 14:39:00,
2013-10-03 09:41:00,77.4,52.5,29.12,WSW,239,8.1,8.1,42,0.00,,CLR,0.08,VWS V14.01,2013-10-03 14:41:00,
2013-10-03 09:43:00,77.2,52.3,29.12,South,184,10.1,10.1,42,0.00,,CLR,0.08,VWS V14.01,2013-10-03 14:43:00,
2013-10-03 09:44:00,76.8,52.0,29.12,WSW,238,8.7,8.7,42,0.00,,CLR,0.08,VWS V14.01,2013-10-03 14:44:00,
2013-10-03 09:46:00,76.5,51.7,29.12,SW,216,5.8,5.8,42,0.00,,CLR,0.08,VWS V14.01,2013-10-03 14:46:00,
2013-10-03 09:47:00,76.5,51.7,29.12,SW,225,6.3,6.3,42,0.00,,CLR,0.08,VWS V14.01,2013-10-03 14:47:00,
2013-10-03 09:48:00,76.5,51.7,29.12,SW,216,4.0,4.0,42,0.00,,CLR,0.08,VWS V14.01,2013-10-03 14:48:00,
2013-10-03 09:49:00,76.5,51.7,29.12,South,175,5.4,5.4,42,0.00,,CLR,0.08,VWS V14.01,2013-10-03 14:49:00,
2013-10-03 09:52:00,76.8,53.3,29.12,SW,226,7.6,7.6,44,0.00,,CLR,0.08,VWS V14.01,2013-10-03 14:52:00,
2013-10-03 09:53:00,76.8,53.3,29.12,SW,226,7.6,7.6,44,0.00,,CLR,0.08,VWS V14.01,2013-10-03 14:53:00,
2013-10-03 09:54:00,76.8,52.0,29.09,SW,227,8.7,8.7,42,0.00,,CLR,0.08,VWS V14.01,2013-10-03 14:54:00,
2013-10-03 09:55:00,77.0,52.2,29.09,South,179,6.3,8.7,42,0.00,,CLR,0.08,VWS V14.01,2013-10-03 14:55:00,
2013-10-03 09:58:00,77.9,53.0,29.09,South,182,5.8,8.3,42,0.00,,CLR,0.08,VWS V14.01,2013-10-03 14:58:00,
2013-10-03 09:59:00,78.1,53.2,29.09,SW,220,7.6,8.3,42,0.00,,CLR,0.08,VWS V14.01,2013-10-03 14:59:00,
2013-10-03 10:00:00,78.4,53.5,29.09,SW,230,8.3,8.3,42,0.00,,CLR,0.08,VWS V14.01,2013-10-03 15:00:00,
2013-10-03 10:01:00,79.0,52.6,29.09,SSW,197,8.7,8.7,40,0.00,,SCT018,0.08,VWS V14.01,2013-10-03 15:01:00,
2013-10-03 10:04:00,79.3,48.6,29.09,SW,231,8.1,10.5,34,0.00,,SCT018,0.08,VWS V14.01,2013-10-03 15:04:00,
2013-10-03 10:05:00,79.5,48.7,29.09,South,184,6.3,6.3,34,0.00,,SCT018,0.08,VWS V14.01,2013-10-03 15:05:00,
2013-10-03 10:06:00,79.5,48.7,29.09,SSW,211,8.3,10.1,34,0.00,,SCT018,0.08,VWS V14.01,2013-10-03 15:06:00,
2013-10-03 10:09:00,79.3,45.2,29.12,SSW,192,8.3,12.8,30,0.00,,SCT018,0.08,VWS V14.01,2013-10-03 15:09:00,
2013-10-03 10:10:00,79.3,45.2,29.12,SW,214,6.3,12.8,30,0.00,,SCT018,0.08,VWS V14.01,2013-10-03 15:10:00,
2013-10-03 10:11:00,79.3,45.2,29.12,SW,224,8.3,8.3,30,0.00,,SCT018,0.08,VWS V14.01,2013-10-03 15:11:00,
2013-10-03 10:12:00,79.0,44.9,29.12,WSW,255,8.7,8.7,30,0.00,,SCT018,0.08,VWS V14.01,2013-10-03 15:12:00,
2013-10-03 10:15:00,78.8,44.8,29.12,WSW,249,3.6,9.2,30,0.00,,SCT018,0.08,VWS V14.01,2013-10-03 15:15:00,
2013-10-03 10:16:00,78.4,44.5,29.12,SW,228,8.1,8.1,30,0.00,,SCT018,0.08,VWS V14.01,2013-10-03 15:16:00,
2013-10-03 10:18:00,78.4,44.5,29.12,SW,225,7.2,7.6,30,0.00,,SCT018,0.08,VWS V14.01,2013-10-03 15:18:00,
2013-10-03 10:20:00,78.3,49.1,29.12,SW,232,8.1,8.7,36,0.00,,SCT018,0.08,VWS V14.01,2013-10-03 15:20:00,
2013-10-03 10:21:00,78.1,49.0,29.12,SW,236,5.4,5.4,36,0.00,,SCT018,0.08,VWS V14.01,2013-10-03 15:21:00,
2013-10-03 10:22:00,78.1,49.0,29.12,WSW,247,10.1,10.1,36,0.00,,SCT018,0.08,VWS V14.01,2013-10-03 15:22:00,
2013-10-03 10:24:00,77.7,48.7,29.12,WSW,245,6.3,8.1,36,0.00,,SCT018,0.08,VWS V14.01,2013-10-03 15:24:00,
2013-10-03 10:25:00,77.5,48.5,29.12,WSW,241,7.6,8.1,36,0.00,,SCT018,0.08,VWS V14.01,2013-10-03 15:25:00,
2013-10-03 10:26:00,77.2,48.2,29.12,WSW,251,5.8,5.8,36,0.00,,SCT018,0.08,VWS V14.01,2013-10-03 15:26:00,
2013-10-03 10:28:00,77.0,48.0,29.12,SW,222,8.1,8.1,36,0.00,,SCT018,0.08,VWS V14.01,2013-10-03 15:28:00,
2013-10-03 10:30:00,77.0,48.0,29.12,WSW,254,6.3,6.3,36,0.00,,SCT018,0.08,VWS V14.01,2013-10-03 15:30:00,
2013-10-03 10:31:00,77.0,48.0,29.12,SW,228,6.3,6.3,36,0.00,,BKN055,0.08,VWS V14.01,2013-10-03 15:31:00,
2013-10-03 10:32:00,77.0,48.0,29.12,WSW,240,5.4,6.3,36,0.00,,BKN055,0.08,VWS V14.01,2013-10-03 15:32:00,
2013-10-03 10:34:00,77.2,51.0,29.12,SSW,205,5.4,5.4,40,0.00,,BKN055,0.08,VWS V14.01,2013-10-03 15:34:00,
2013-10-03 10:36:00,77.4,51.2,29.12,SW,218,6.3,8.3,40,0.00,,BKN055,0.08,VWS V14.01,2013-10-03 15:36:00,
2013-10-03 10:37:00,77.4,51.2,29.12,SSW,198,4.9,7.6,40,0.00,,BKN055,0.08,VWS V14.01,2013-10-03 15:37:00,
2013-10-03 10:39:00,77.9,51.7,29.12,SW,223,5.8,6.3,40,0.00,,BKN055,0.08,VWS V14.01,2013-10-03 15:39:00,
2013-10-03 10:41:00,78.1,51.8,29.12,SW,230,5.4,6.3,40,0.00,,BKN055,0.08,VWS V14.01,2013-10-03 15:41:00,
2013-10-03 10:42:00,78.4,52.1,29.12,SSW,212,6.3,7.2,40,0.00,,BKN055,0.08,VWS V14.01,2013-10-03 15:42:00,
2013-10-03 10:43:00,78.6,49.5,29.12,WSW,239,7.6,7.6,36,0.00,,BKN055,0.08,VWS V14.01,2013-10-03 15:43:00,
2013-10-03 10:44:00,78.8,48.1,29.12,WSW,246,6.3,6.3,34,0.00,,BKN055,0.08,VWS V14.01,2013-10-03 15:44:00,
2013-10-03 10:46:00,78.8,48.1,29.12,WSW,238,8.1,8.3,34,0.00,,BKN055,0.08,VWS V14.01,2013-10-03 15:46:00,
2013-10-03 10:47:00,78.8,48.1,29.12,NW,322,6.7,8.3,34,0.00,,BKN055,0.08,VWS V14.01,2013-10-03 15:47:00,
2013-10-03 10:50:00,78.6,49.5,29.12,SW,234,4.9,8.3,36,0.00,,BKN055,0.08,VWS V14.01,2013-10-03 15:50:00,
2013-10-03 10:51:00,78.6,49.5,29.12,SW,234,3.1,5.4,36,0.00,,BKN055,0.08,VWS V14.01,2013-10-03 15:51:00,
2013-10-03 10:52:00,78.6,49.5,29.12,WSW,248,6.3,6.3,36,0.00,,BKN055,0.08,VWS V14.01,2013-10-03 15:52:00,
2013-10-03 10:53:00,78.8,48.1,29.09,WSW,243,3.6,6.3,34,0.00,,BKN055,0.08,VWS V14.01,2013-10-03 15:53:00,
2013-10-03 10:55:00,79.0,48.2,29.09,SW,216,8.7,8.7,34,0.00,,BKN055,0.08,VWS V14.01,2013-10-03 15:55:00,
2013-10-03 10:56:00,79.0,48.2,29.09,WSW,246,5.4,6.3,34,0.00,,BKN055,0.08,VWS V14.01,2013-10-03 15:56:00,
2013-10-03 10:57:00,79.0,48.2,29.09,WSW,247,4.0,6.3,34,0.00,,BKN055,0.08,VWS V14.01,2013-10-03 15:57:00,
2013-10-03 10:58:00,79.0,48.2,29.09,WSW,247,4.0,6.3,34,0.00,,BKN055,0.08,VWS V14.01,2013-10-03 15:58:00,
2013-10-03 11:00:00,78.8,48.1,29.09,West,265,3.6,5.4,34,0.00,,BKN055,0.08,VWS V14.01,2013-10-03 16:00:00,
2013-10-03 11:02:00,78.6,49.5,29.09,WSW,254,5.4,5.8,36,0.00,,-RA,0.08,VWS V14.01,2013-10-03 16:02:00,
2013-10-03 11:03:00,78.6,49.5,29.09,West,263,5.4,5.8,36,0.00,,-RA,0.08,VWS V14.01,2013-10-03 16:03:00,
2013-10-03 11:04:00,78.6,49.5,29.09,West,266,4.9,6.3,36,0.00,,-RA,0.08,VWS V14.01,2013-10-03 16:04:00,
2013-10-03 11:05:00,78.6,49.5,29.09,West,274,4.0,5.8,36,0.00,,-RA,0.08,VWS V14.01,2013-10-03 16:05:00,
2013-10-03 11:07:00,78.8,48.1,29.09,WSW,245,5.8,5.8,34,0.00,,-RA,0.08,VWS V14.01,2013-10-03 16:07:00,
2013-10-03 11:08:00,78.8,48.1,29.09,SW,234,6.3,7.6,34,0.00,,-RA,0.08,VWS V14.01,2013-10-03 16:08:00,
2013-10-03 11:09:00,79.0,48.2,29.12,WSW,256,4.0,6.3,34,0.00,,-RA,0.08,VWS V14.01,2013-10-03 16:09:00,
2013-10-03 11:11:00,79.3,48.6,29.12,West,270,3.1,5.8,34,0.00,,-RA,0.08,VWS V14.01,2013-10-03 16:11:00,
2013-10-03 11:12:00,79.9,49.0,29.12,SSW,211,4.9,4.9,34,0.00,,-RA,0.08,VWS V14.01,2013-10-03 16:12:00,
2013-10-03 11:13:00,79.9,49.0,29.12,WSW,238,3.6,4.9,34,0.00,,-RA,0.08,VWS V14.01,2013-10-03 16:13:00,
2013-10-03 11:14:00,80.6,49.7,29.12,WSW,241,2.7,4.0,34,0.00,,-RA,0.08,VWS V14.01,2013-10-03 16:14:00,
2013-10-03 11:16:00,80.8,49.8,29.12,West,259,4.0,4.0,34,0.00,,-RA,0.08,VWS V14.01,2013-10-03 16:16:00,
2013-10-03 11:17:00,81.0,50.0,29.12,West,262,4.0,4.5,34,0.00,,-RA,0.08,VWS V14.01,2013-10-03 16:17:00,
2013-10-03 11:18:00,81.0,50.0,29.12,West,262,2.2,4.5,34,0.00,,-RA,0.08,VWS V14.01,2013-10-03 16:18:00,
2013-10-03 11:19:00,80.8,44.7,29.12,WSW,258,0.0,0.0,28,0.00,,-RA,0.08,VWS V14.01,2013-10-03 16:19:00,
2013-10-03 11:21:00,80.6,44.5,29.12,SW,214,3.6,3.6,28,0.00,,-RA,0.08,VWS V14.01,2013-10-03 16:21:00,
2013-10-03 11:23:00,80.4,46.2,29.12,SSW,205,5.4,5.8,30,0.00,,-RA,0.08,VWS V14.01,2013-10-03 16:23:00,
2013-10-03 11:24:00,80.4,46.2,29.12,SSW,209,4.0,4.9,30,0.00,,-RA,0.08,VWS V14.01,2013-10-03 16:24:00,
2013-10-03 11:25:00,80.2,46.0,29.12,SW,225,3.1,4.9,30,0.00,,-RA,0.08,VWS V14.01,2013-10-03 16:25:00,
2013-10-03 11:26:00,80.2,46.0,29.12,WSW,258,5.4,5.4,30,0.00,,-RA,0.08,VWS V14.01,2013-10-03 16:26:00,
2013-10-03 11:27:00,80.2,46.0,29.12,WSW,252,0.0,3.6,30,0.00,,-RA,0.08,VWS V14.01,2013-10-03 16:27:00,
2013-10-03 11:28:00,80.2,46.0,29.12,WSW,252,2.2,3.6,30,0.00,,-RA,0.08,VWS V14.01,2013-10-03 16:28:00,
2013-10-03 11:29:00,80.1,45.9,29.12,West,261,3.1,4.9,30,0.00,,-RA,0.08,VWS V14.01,2013-10-03 16:29:00,
2013-10-03 11:30:00,80.1,45.9,29.12,West,280,3.1,3.1,30,0.00,,-RA,0.08,VWS V14.01,2013-10-03 16:30:00,
2013-10-03 11:32:00,79.7,45.6,29.12,SW,219,3.6,6.3,30,0.00,,-RA,0.08,VWS V14.01,2013-10-03 16:32:00,
2013-10-03 11:33:00,79.7,45.6,29.12,SW,229,4.0,6.3,30,0.00,,-RA,0.08,VWS V14.01,2013-10-03 16:33:00,
2013-10-03 11:34:00,79.5,45.4,29.12,SW,225,5.4,5.4,30,0.00,,-RA,0.08,VWS V14.01,2013-10-03 16:34:00,
2013-10-03 11:35:00,79.3,45.2,29.12,SW,234,5.8,5.8,30,0.00,,-RA,0.08,VWS V14.01,2013-10-03 16:35:00,
2013-10-03 11:36:00,79.3,45.2,29.12,SW,234,3.1,4.0,30,0.00,,-RA,0.08,VWS V14.01,2013-10-03 16:36:00,
2013-10-03 11:37:00,79.2,45.1,29.12,SW,235,3.1,3.1,30,0.00,,-RA,0.08,VWS V14.01,2013-10-03 16:37:00,
2013-10-03 11:38:00,79.2,45.1,29.09,SW,235,2.2,2.2,30,0.00,,-RA,0.08,VWS V14.01,2013-10-03 16:38:00,
2013-10-03 11:40:00,79.2,48.4,29.09,SW,236,2.7,3.6,34,0.00,,-RA,0.08,VWS V14.01,2013-10-03 16:40:00,
2013-10-03 11:41:00,79.2,48.4,29.09,SW,236,3.6,3.6,34,0.00,,-RA,0.08,VWS V14.01,2013-10-03 16:41:00,
2013-10-03 11:43:00,79.2,48.4,29.09,SW,236,2.7,3.6,34,0.00,,-RA,0.08,VWS V14.01,2013-10-03 16:43:00,
2013-10-03 11:45:00,79.5,48.7,29.09,WSW,240,0.0,0.0,34,0.00,,-RA,0.08,VWS V14.01,2013-10-03 16:45:00,
2013-10-03 11:47:00,79.7,48.9,29.09,WSW,240,2.2,3.1,34,0.00,,-RA,0.08,VWS V14.01,2013-10-03 16:47:00,
2013-10-03 11:48:00,80.1,49.2,29.09,WSW,258,3.6,3.6,34,0.00,,-RA,0.08,VWS V14.01,2013-10-03 16:48:00,
2013-10-03 11:49:00,80.2,49.3,29.09,West,266,2.7,3.6,34,0.00,,-RA,0.08,VWS V14.01,2013-10-03 16:49:00,
2013-10-03 11:50:00,80.2,49.3,29.09,West,266,2.7,3.1,34,0.00,,-RA,0.08,VWS V14.01,2013-10-03 16:50:00,
2013-10-03 11:51:00,80.2,49.3,29.09,SSW,193,3.1,3.1,34,0.00,,-RA,0.08,VWS V14.01,2013-10-03 16:51:00,
2013-10-03 11:53:00,80.4,49.5,29.09,SW,222,3.1,3.6,34,0.00,,-RA,0.08,VWS V14.01,2013-10-03 16:53:00,
2013-10-03 11:54:00,80.4,49.5,29.09,South,184,3.1,4.0,34,0.00,,-RA,0.08,VWS V14.01,2013-10-03 16:54:00,
2013-10-03 11:55:00,80.4,46.2,29.09,South,188,3.6,4.0,30,0.00,,-RA,0.08,VWS V14.01,2013-10-03 16:55:00,
2013-10-03 11:56:00,80.4,46.2,29.09,South,188,2.2,4.0,30,0.00,,-RA,0.08,VWS V14.01,2013-10-03 16:56:00,
2013-10-03 11:57:00,80.4,46.2,29.09,South,187,0.0,3.6,30,0.00,,-RA,0.08,VWS V14.01,2013-10-03 16:57:00,
2013-10-03 11:58:00,80.6,44.5,29.09,SSE,164,3.6,4.0,28,0.00,,-RA,0.08,VWS V14.01,2013-10-03 16:58:00,
2013-10-03 12:00:00,80.8,44.7,29.09,SSW,212,5.8,5.8,28,0.00,,-RA,0.08,VWS V14.01,2013-10-03 17:00:00,
2013-10-03 12:02:00,81.0,44.8,29.09,SSW,209,5.8,5.8,28,0.00,,OVC060,0.08,VWS V14.01,2013-10-03 17:02:00,
2013-10-03 12:03:00,81.0,44.8,29.09,SW,224,5.4,5.8,28,0.00,,OVC060,0.08,VWS V14.01,2013-10-03 17:03:00,
2013-10-03 12:05:00,81.5,45.3,29.09,South,169,7.2,7.2,28,0.00,,OVC060,0.08,VWS V14.01,2013-10-03 17:05:00,
2013-10-03 12:06:00,81.5,45.3,29.09,SSE,160,6.3,7.2,28,0.00,,OVC060,0.08,VWS V14.01,2013-10-03 17:06:00,
2013-10-03 12:08:00,81.5,45.3,29.09,SSE,157,6.3,6.3,28,0.00,,OVC060,0.08,VWS V14.01,2013-10-03 17:08:00,
2013-10-03 12:09:00,81.5,45.3,29.09,South,181,5.4,6.3,28,0.00,,OVC060,0.08,VWS V14.01,2013-10-03 17:09:00,
2013-10-03 12:10:00,81.3,45.1,29.09,SSE,168,5.8,5.8,28,0.00,,OVC060,0.08,VWS V14.01,2013-10-03 17:10:00,
2013-10-03 12:11:00,81.1,45.0,29.09,South,169,4.0,4.0,28,0.00,,OVC060,0.08,VWS V14.01,2013-10-03 17:11:00,
2013-10-03 12:13:00,80.8,44.7,29.09,South,189,6.3,6.3,28,0.00,,OVC060,0.08,VWS V14.01,2013-10-03 17:13:00,
2013-10-03 12:14:00,80.8,44.7,29.09,South,190,5.8,5.8,28,0.00,,OVC060,0.08,VWS V14.01,2013-10-03 17:14:00,
2013-10-03 12:15:00,80.6,44.5,29.09,South,170,7.6,7.6,28,0.00,,OVC060,0.08,VWS V14.01,2013-10-03 17:15:00,
2013-10-03 12:16:00,80.4,46.2,29.09,SSE,166,6.3,7.6,30,0.00,,OVC060,0.08,VWS V14.01,2013-10-03 17:16:00,
2013-10-03 12:17:00,80.2,46.0,29.09,SSW,195,3.1,8.3,30,0.00,,OVC060,0.08,VWS V14.01,2013-10-03 17:17:00,
2013-10-03 12:18:00,80.1,45.9,29.09,SSW,194,2.7,2.7,30,0.08,,OVC060,0.16,VWS V14.01,2013-10-03 17:18:00,
2013-10-03 12:19:00,79.3,45.2,29.09,SSW,194,0.0,0.0,30,0.12,,OVC060,0.20,VWS V14.01,2013-10-03 17:19:00,
2013-10-03 12:21:00,78.8,48.1,29.09,SSW,194,0.0,0.0,34,0.12,,OVC060,0.20,VWS V14.01,2013-10-03 17:21:00,
2013-10-03 12:22:00,78.6,49.5,29.09,SSW,194,0.0,0.0,36,0.12,,OVC060,0.20,VWS V14.01,2013-10-03 17:22:00,
2013-10-03 12:23:00,78.4,49.3,29.09,SSW,194,0.0,0.0,36,0.12,,OVC060,0.20,VWS V14.01,2013-10-03 17:23:00,
2013-10-03 12:25:00,78.3,49.1,29.09,SSW,194,0.0,0.0,36,0.12,,OVC060,0.20,VWS V14.01,2013-10-03 17:25:00,
2013-10-03 12:27:00,78.1,51.8,29.09,SSW,194,0.0,0.0,40,0.12,,OVC060,0.20,VWS V14.01,2013-10-03 17:27:00,
2013-10-03 12:28:00,77.9,51.7,29.09,SSW,194,0.0,0.0,40,0.12,,OVC060,0.20,VWS V14.01,2013-10-03 17:28:00,
2013-10-03 12:29:00,77.9,51.7,29.09,SSW,194,0.0,0.0,40,0.12,,OVC060,0.20,VWS V14.01,2013-10-03 17:29:00,
2013-10-03 12:30:00,77.7,52.8,29.09,SSW,194,0.0,0.0,42,0.12,,OVC060,0.20,VWS V14.01,2013-10-03 17:30:00,
2013-10-03 12:32:00,77.7,52.8,29.09,SSW,194,0.0,0.0,42,0.12,,BKN055,0.20,VWS V14.01,2013-10-03 17:32:00,
2013-10-03 12:33:00,77.7,54.1,29.09,SSW,194,0.0,0.0,44,0.12,,BKN055,0.20,VWS V14.01,2013-10-03 17:33:00,
2013-10-03 12:34:00,77.7,54.1,29.09,SSW,194,0.0,0.0,44,0.12,,BKN055,0.20,VWS V14.01,2013-10-03 17:34:00,
2013-10-03 12:35:00,77.9,55.5,29.09,SSW,194,0.0,0.0,46,0.12,,BKN055,0.20,VWS V14.01,2013-10-03 17:35:00,
2013-10-03 12:37:00,77.9,55.5,29.09,SSW,194,0.0,0.0,46,0.12,,BKN055,0.20,VWS V14.01,2013-10-03 17:37:00,
2013-10-03 12:39:00,77.9,56.7,29.06,SSW,194,0.0,0.0,48,0.12,,BKN055,0.20,VWS V14.01,2013-10-03 17:39:00,
2013-10-03 12:40:00,77.7,57.6,29.06,SSW,194,0.0,0.0,50,0.12,,BKN055,0.20,VWS V14.01,2013-10-03 17:40:00,
2013-10-03 12:41:00,77.7,57.6,29.06,SSW,194,0.0,0.0,50,0.12,,BKN055,0.20,VWS V14.01,2013-10-03 17:41:00,
2013-10-03 12:43:00,77.7,58.7,29.06,SSW,194,0.0,0.0,52,0.12,,BKN055,0.20,VWS V14.01,2013-10-03 17:43:00,
2013-10-03 12:44:00,77.7,58.7,29.06,SSW,194,0.0,0.0,52,0.12,,BKN055,0.20,VWS V14.01,2013-10-03 17:44:00,
2013-10-03 12:45:00,77.7,60.8,29.06,SSE,162,5.4,5.4,56,0.12,,BKN055,0.20,VWS V14.01,2013-10-03 17:45:00,
2013-10-03 12:46:00,77.7,62.7,29.06,SSE,152,4.9,5.8,60,0.12,,BKN055,0.20,VWS V14.01,2013-10-03 17:46:00,
2013-10-03 12:47:00,77.7,63.7,29.06,SE,145,3.6,3.6,62,0.16,,BKN055,0.24,VWS V14.01,2013-10-03 17:47:00,
2013-10-03 12:48:00,77.5,62.6,29.06,South,184,14.5,14.5,60,0.16,,BKN055,0.24,VWS V14.01,2013-10-03 17:48:00,
2013-10-03 12:49:00,77.5,62.6,29.06,SSW,197,8.3,14.5,60,0.16,,BKN055,0.24,VWS V14.01,2013-10-03 17:49:00,
2013-10-03 12:51:00,75.7,49.7,29.06,SSW,203,8.7,8.7,40,0.16,,BKN055,0.24,VWS V14.01,2013-10-03 17:51:00,
2013-10-03 12:52:00,75.4,49.4,29.06,SSW,208,7.6,8.7,40,0.16,,BKN055,0.24,VWS V14.01,2013-10-03 17:52:00,
2013-10-03 12:53:00,74.8,50.2,29.06,SW,223,3.1,7.6,42,0.16,,BKN055,0.24,VWS V14.01,2013-10-03 17:53:00,
2013-10-03 12:54:00,74.5,49.9,29.06,SW,227,3.1,4.9,42,0.16,,BKN055,0.24,VWS V14.01,2013-10-03 17:54:00,
2013-10-03 12:55:00,74.3,49.8,29.06,SW,227,0.0,0.0,42,0.16,,BKN055,0.24,VWS V14.01,2013-10-03 17:55:00,
2013-10-03 12:56:00,74.1,49.6,29.06,South,170,4.0,4.0,42,0.16,,BKN055,0.24,VWS V14.01,2013-10-03 17:56:00,
2013-10-03 12:57:00,73.8,49.3,29.06,SSW,195,2.7,5.4,42,0.16,,BKN055,0.24,VWS V14.01,2013-10-03 17:57:00,
2013-10-03 12:58:00,73.8,50.5,29.06,South,180,6.3,6.3,44,0.16,,BKN055,0.24,VWS V14.01,2013-10-03 17:58:00,
2013-10-03 13:00:00,73.4,51.4,29.06,WSW,252,5.8,5.8,46,0.16,,BKN055,0.24,VWS V14.01,2013-10-03 18:00:00,
2013-10-03 13:01:00,73.4,51.4,29.06,SW,221,5.8,6.3,46,0.16,,FEW030,0.24,VWS V14.01,2013-10-03 18:01:00,
2013-10-03 13:02:00,73.4,51.4,29.06,SW,217,4.9,6.3,46,0.16,,FEW030,0.24,VWS V14.01,2013-10-03 18:02:00,
2013-10-03 13:03:00,73.6,52.7,29.06,SSW,204,4.0,5.8,48,0.16,,FEW030,0.24,VWS V14.01,2013-10-03 18:03:00,
2013-10-03 13:04:00,73.6,52.7,29.06,SSW,213,4.0,4.9,48,0.16,,FEW030,0.24,VWS V14.01,2013-10-03 18:04:00,
2013-10-03 13:06:00,74.5,56.8,29.06,SSW,208,4.0,4.9,54,0.16,,FEW030,0.24,VWS V14.01,2013-10-03 18:06:00,
2013-10-03 13:07:00,75.2,58.4,29.06,SSW,209,3.6,4.0,56,0.16,,FEW030,0.24,VWS V14.01,2013-10-03 18:07:00,
2013-10-03 13:08:00,75.6,59.8,29.06,SSW,209,4.0,4.0,58,0.16,,FEW030,0.24,VWS V14.01,2013-10-03 18:08:00,
2013-10-03 13:11:00,77.4,62.4,29.06,SSW,209,3.6,3.6,60,0.16,,FEW030,0.24,VWS V14.01,2013-10-03 18:11:00,
2013-10-03 13:12:00,77.7,63.7,29.06,SSW,213,4.0,4.0,62,0.16,,FEW030,0.24,VWS V14.01,2013-10-03 18:12:00,
2013-10-03 13:13:00,78.4,64.3,29.06,SSW,213,3.6,4.0,62,0.16,,FEW030,0.24,VWS V14.01,2013-10-03 18:13:00,
2013-10-03 13:14:00,79.3,64.3,29.06,South,187,3.1,3.6,60,0.16,,FEW030,0.24,VWS V14.01,2013-10-03 18:14:00,
2013-10-03 13:18:00,80.8,63.6,29.06,South,181,3.1,3.6,56,0.16,,FEW030,0.24,VWS V14.01,2013-10-03 18:18:00,
2013-10-03 13:19:00,80.8,62.6,29.06,South,181,0.0,3.1,54,0.12,,FEW030,0.24,VWS V14.01,2013-10-03 18:19:00,
2013-10-03 13:20:00,80.8,61.5,29.06,South,181,0.0,0.0,52,0.08,,FEW030,0.24,VWS V14.01,2013-10-03 18:20:00,
2013-10-03 13:23:00,80.8,59.3,29.03,South,178,0.0,0.0,48,0.04,,FEW030,0.24,VWS V14.01,2013-10-03 18:23:00,
2013-10-03 13:24:00,80.8,59.3,29.03,South,178,0.0,0.0,48,0.04,,FEW030,0.24,VWS V14.01,2013-10-03 18:24:00,
2013-10-03 13:25:00,80.8,59.3,29.03,South,178,0.0,0.0,48,0.04,,FEW030,0.24,VWS V14.01,2013-10-03 18:25:00,
2013-10-03 13:28:00,80.8,59.3,29.03,South,178,0.0,0.0,48,0.04,,FEW030,0.24,VWS V14.01,2013-10-03 18:28:00,
2013-10-03 13:30:00,80.8,59.3,29.03,South,178,0.0,0.0,48,0.04,,FEW030,0.24,VWS V14.01,2013-10-03 18:30:00,
2013-10-03 13:31:00,80.6,57.9,29.03,South,178,0.0,0.0,46,0.04,,FEW030,0.24,VWS V14.01,2013-10-03 18:31:00,
2013-10-03 13:34:00,80.6,59.1,29.03,South,178,0.0,0.0,48,0.04,,FEW030,0.24,VWS V14.01,2013-10-03 18:34:00,
2013-10-03 13:35:00,81.0,59.4,29.03,South,178,0.0,0.0,48,0.04,,FEW030,0.24,VWS V14.01,2013-10-03 18:35:00,
2013-10-03 13:36:00,81.0,59.4,29.03,South,178,0.0,0.0,48,0.04,,FEW030,0.24,VWS V14.01,2013-10-03 18:36:00,
2013-10-03 13:37:00,81.1,59.6,29.03,South,178,0.0,0.0,48,0.04,,FEW030,0.24,VWS V14.01,2013-10-03 18:37:00,
2013-10-03 13:39:00,81.5,59.9,29.03,South,178,0.0,0.0,48,0.04,,FEW030,0.24,VWS V14.01,2013-10-03 18:39:00,
2013-10-03 13:41:00,81.5,59.9,29.03,South,178,0.0,0.0,48,0.04,,FEW030,0.24,VWS V14.01,2013-10-03 18:41:00,
2013-10-03 13:42:00,81.5,58.8,29.03,South,178,0.0,0.0,46,0.04,,FEW030,0.24,VWS V14.01,2013-10-03 18:42:00,
2013-10-03 13:44:00,81.5,57.5,29.03,South,178,0.0,0.0,44,0.04,,FEW030,0.24,VWS V14.01,2013-10-03 18:44:00,
2013-10-03 13:45:00,82.4,58.3,29.03,South,178,0.0,0.0,44,0.04,,FEW030,0.24,VWS V14.01,2013-10-03 18:45:00,
2013-10-03 13:46:00,82.8,59.9,29.03,South,178,0.0,2.2,46,0.04,,FEW030,0.24,VWS V14.01,2013-10-03 18:46:00,
2013-10-03 13:47:00,82.8,59.9,29.03,South,178,0.0,2.2,46,0.04,,FEW030,0.24,VWS V14.01,2013-10-03 18:47:00,
2013-10-03 13:48:00,84.0,61.0,29.03,SSE,168,3.6,4.0,46,0.00,,FEW030,0.24,VWS V14.01,2013-10-03 18:48:00,
2013-10-03 13:50:00,84.4,58.8,29.03,SSW,199,4.0,4.0,42,0.00,,FEW030,0.24,VWS V14.01,2013-10-03 18:50:00,
2013-10-03 13:52:00,84.4,56.0,29.03,SSE,166,3.6,5.4,38,0.00,,FEW030,0.24,VWS V14.01,2013-10-03 18:52:00,
2013-10-03 13:53:00,84.2,55.9,29.03,South,179,5.4,5.8,38,0.00,,FEW030,0.24,VWS V14.01,2013-10-03 18:53:00,
2013-10-03 13:55:00,83.8,50.9,29.03,SSW,196,5.4,5.8,32,0.00,,FEW030,0.24,VWS V14.01,2013-10-03 18:55:00,
2013-10-03 13:56:00,83.8,50.9,29.03,SSW,200,5.4,5.8,32,0.00,,FEW030,0.24,VWS V14.01,2013-10-03 18:56:00,
2013-10-03 13:57:00,84.6,54.7,29.03,SW,218,5.4,5.4,36,0.00,,FEW030,0.24,VWS V14.01,2013-10-03 18:57:00,
2013-10-03 13:58:00,84.7,54.9,29.03,SW,223,6.7,7.2,36,0.00,,FEW030,0.24,VWS V14.01,2013-10-03 18:58:00,
2013-10-03 14:01:00,85.1,52.0,29.03,SSW,199,7.6,7.6,32,0.00,,SCT045,0.24,VWS V14.01,2013-10-03 19:01:00,
2013-10-03 14:02:00,85.1,52.0,29.03,SW,214,8.7,8.7,32,0.00,,SCT045,0.24,VWS V14.01,2013-10-03 19:02:00,
2013-10-03 14:03:00,84.7,46.1,29.03,South,191,4.9,5.8,26,0.00,,SCT045,0.24,VWS V14.01,2013-10-03 19:03:00,
2013-10-03 14:04:00,84.6,45.9,29.03,South,176,6.3,6.3,26,0.00,,SCT045,0.24,VWS V14.01,2013-10-03 19:04:00,
2013-10-03 14:06:00,84.4,45.8,29.03,SSW,192,5.4,5.4,26,0.00,,SCT045,0.24,VWS V14.01,2013-10-03 19:06:00,
2013-10-03 14:07:00,84.2,45.6,29.03,SW,222,6.3,6.3,26,0.00,,SCT045,0.24,VWS V14.01,2013-10-03 19:07:00,
2013-10-03 14:08:00,84.0,47.4,29.03,SSW,207,6.3,6.3,28,0.00,,SCT045,0.24,VWS V14.01,2013-10-03 19:08:00,
2013-10-03 14:09:00,83.8,47.3,29.03,SSW,210,5.8,8.1,28,0.00,,SCT045,0.24,VWS V14.01,2013-10-03 19:09:00,
2013-10-03 14:11:00,83.5,47.0,29.03,SW,216,7.6,8.7,28,0.00,,SCT045,0.24,VWS V14.01,2013-10-03 19:11:00,
2013-10-03 14:12:00,83.1,46.7,29.03,SW,225,5.8,8.1,28,0.00,,SCT045,0.24,VWS V14.01,2013-10-03 19:12:00,
2013-10-03 14:13:00,82.8,46.4,29.03,SW,224,5.8,6.3,28,0.00,,SCT045,0.24,VWS V14.01,2013-10-03 19:13:00,
2013-10-03 14:14:00,82.4,46.1,29.03,SW,215,5.4,5.8,28,0.00,,SCT045,0.24,VWS V14.01,2013-10-03 19:14:00,
2013-10-03 14:16:00,82.6,49.8,29.03,SW,214,4.0,5.4,32,0.00,,SCT045,0.24,VWS V14.01,2013-10-03 19:16:00,
2013-10-03 14:17:00,82.9,50.1,29.03,SSW,209,4.0,4.0,32,0.00,,SCT045,0.24,VWS V14.01,2013-10-03 19:17:00,
2013-10-03 14:19:00,83.7,55.4,29.03,South,190,4.0,4.9,38,0.00,,SCT045,0.24,VWS V14.01,2013-10-03 19:19:00,
2013-10-03 14:20:00,83.8,55.5,29.03,SSW,211,8.1,8.1,38,0.00,,SCT045,0.24,VWS V14.01,2013-10-03 19:20:00,
2013-10-03 14:22:00,84.0,47.4,29.03,SSW,197,10.5,11.0,28,0.00,,SCT045,0.24,VWS V14.01,2013-10-03 19:22:00,
2013-10-03 14:23:00,84.4,45.8,29.00,SSW,193,11.9,11.9,26,0.00,,SCT045,0.24,VWS V14.01,2013-10-03 19:23:00,
2013-10-03 14:24:00,84.4,45.8,29.00,SSE,157,7.2,8.3,26,0.00,,SCT045,0.24,VWS V14.01,2013-10-03 19:24:00,
2013-10-03 14:25:00,84.4,45.8,29.00,SSW,212,6.3,8.3,26,0.00,,SCT045,0.24,VWS V14.01,2013-10-03 19:25:00,
2013-10-03 14:28:00,84.6,45.9,29.00,SSW,205,7.6,8.7,26,0.00,,SCT045,0.24,VWS V14.01,2013-10-03 19:28:00,
2013-10-03 14:29:00,84.6,45.9,29.00,SSW,202,6.3,7.6,26,0.00,,SCT045,0.24,VWS V14.01,2013-10-03 19:29:00,
2013-10-03 14:30:00,84.6,45.9,29.00,SSW,211,8.3,8.7,26,0.00,,SCT045,0.24,VWS V14.01,2013-10-03 19:30:00,
2013-10-03 14:31:00,84.4,45.8,29.00,SSW,208,8.1,8.3,26,0.00,,SCT050,0.24,VWS V14.01,2013-10-03 19:31:00,
2013-10-03 14:33:00,84.0,47.4,29.00,SW,229,8.7,11.0,28,0.00,,SCT050,0.24,VWS V14.01,2013-10-03 19:33:00,
2013-10-03 14:34:00,84.0,47.4,29.00,SW,225,5.8,6.7,28,0.00,,SCT050,0.24,VWS V14.01,2013-10-03 19:34:00,
2013-10-03 14:35:00,83.8,47.3,29.00,WSW,241,8.1,8.1,28,0.00,,SCT050,0.24,VWS V14.01,2013-10-03 19:35:00,
2013-10-03 14:36:00,83.8,47.3,29.00,SW,234,5.4,6.3,28,0.00,,SCT050,0.24,VWS V14.01,2013-10-03 19:36:00,
2013-10-03 14:38:00,83.7,47.1,29.00,SSW,192,13.2,13.2,28,0.00,,SCT050,0.24,VWS V14.01,2013-10-03 19:38:00,
2013-10-03 14:39:00,83.5,47.0,29.03,SW,226,8.7,13.2,28,0.00,,SCT050,0.24,VWS V14.01,2013-10-03 19:39:00,
2013-10-03 14:40:00,83.5,47.0,29.03,WSW,240,10.5,10.5,28,0.00,,SCT050,0.24,VWS V14.01,2013-10-03 19:40:00,
2013-10-03 14:41:00,83.3,46.8,29.03,SW,218,6.3,11.0,28,0.00,,SCT050,0.24,VWS V14.01,2013-10-03 19:41:00,
2013-10-03 14:42:00,83.3,46.8,29.03,SW,234,3.1,3.1,28,0.00,,SCT050,0.24,VWS V14.01,2013-10-03 19:42:00,
2013-10-03 14:44:00,82.9,46.5,29.03,WSW,249,5.8,8.7,28,0.00,,SCT050,0.24,VWS V14.01,2013-10-03 19:44:00,
2013-10-03 14:45:00,82.9,46.5,29.03,SW,233,8.3,8.7,28,0.00,,SCT050,0.24,VWS V14.01,2013-10-03 19:45:00,
2013-10-03 14:46:00,82.8,46.4,29.03,WSW,241,5.8,8.7,28,0.00,,SCT050,0.24,VWS V14.01,2013-10-03 19:46:00,
2013-10-03 14:47:00,82.8,46.4,29.03,SW,233,5.8,8.7,28,0.00,,SCT050,0.24,VWS V14.01,2013-10-03 19:47:00,
2013-10-03 14:50:00,82.2,45.9,29.03,SW,226,7.6,7.6,28,0.00,,SCT050,0.24,VWS V14.01,2013-10-03 19:50:00,
2013-10-03 14:51:00,82.2,45.9,29.03,SW,226,4.0,4.0,28,0.00,,SCT050,0.24,VWS V14.01,2013-10-03 19:51:00,
2013-10-03 14:52:00,82.0,45.8,29.03,SW,234,8.7,8.7,28,0.00,,SCT050,0.24,VWS V14.01,2013-10-03 19:52:00,
2013-10-03 14:55:00,81.9,45.6,29.03,SSW,207,5.4,5.4,28,0.00,,SCT050,0.24,VWS V14.01,2013-10-03 19:55:00,
2013-10-03 14:56:00,81.7,45.4,29.03,SW,223,5.8,5.8,28,0.00,,SCT050,0.24,VWS V14.01,2013-10-03 19:56:00,
2013-10-03 14:57:00,81.7,45.4,29.03,SW,215,7.6,7.6,28,0.00,,SCT050,0.24,VWS V14.01,2013-10-03 19:57:00,
2013-10-03 14:58:00,81.5,45.3,29.03,SW,231,8.7,11.0,28,0.00,,SCT050,0.24,VWS V14.01,2013-10-03 19:58:00,
2013-10-03 15:01:00,81.3,45.1,29.03,SW,230,7.6,10.5,28,0.00,,SCT060,0.24,VWS V14.01,2013-10-03 20:01:00,
2013-10-03 15:02:00,81.1,45.0,29.03,WSW,249,6.3,6.3,28,0.00,,SCT060,0.24,VWS V14.01,2013-10-03 20:02:00,
2013-10-03 15:03:00,81.1,45.0,29.03,SW,230,6.3,7.6,28,0.00,,SCT060,0.24,VWS V14.01,2013-10-03 20:03:00,
2013-10-03 15:04:00,81.0,44.8,29.03,SW,234,4.0,8.7,28,0.00,,SCT060,0.24,VWS V14.01,2013-10-03 20:04:00,
2013-10-03 15:06:00,80.6,44.5,29.03,WNW,290,8.1,8.1,28,0.00,,SCT060,0.24,VWS V14.01,2013-10-03 20:06:00,
2013-10-03 15:07:00,80.4,46.2,29.03,West,274,8.1,8.1,30,0.00,,SCT060,0.24,VWS V14.01,2013-10-03 20:07:00,
2013-10-03 15:08:00,80.2,46.0,29.03,WNW,284,6.3,6.3,30,0.00,,SCT060,0.24,VWS V14.01,2013-10-03 20:08:00,
2013-10-03 15:10:00,80.1,49.2,29.03,NW,312,12.8,12.8,34,0.00,,SCT060,0.24,VWS V14.01,2013-10-03 20:10:00,
2013-10-03 15:11:00,79.5,48.7,29.03,NNW,329,10.1,10.1,34,0.00,,SCT060,0.24,VWS V14.01,2013-10-03 20:11:00,
2013-10-03 15:12:00,79.2,48.4,29.03,NW,322,11.0,13.2,34,0.00,,SCT060,0.24,VWS V14.01,2013-10-03 20:12:00,
2013-10-03 15:13:00,77.9,44.0,29.03,NW,315,10.5,19.2,30,0.00,,SCT060,0.24,VWS V14.01,2013-10-03 20:13:00,
2013-10-03 15:15:00,76.8,43.1,29.03,WNW,303,9.6,17.4,30,0.00,,SCT060,0.24,VWS V14.01,2013-10-03 20:15:00,
2013-10-03 15:17:00,75.6,42.0,29.03,NW,316,7.6,11.4,30,0.00,,SCT060,0.24,VWS V14.01,2013-10-03 20:17:00,
2013-10-03 15:18:00,75.0,46.3,29.03,NW,318,6.3,8.7,36,0.00,,SCT060,0.24,VWS V14.01,2013-10-03 20:18:00,
2013-10-03 15:19:00,74.8,46.1,29.03,NW,320,8.7,8.7,36,0.00,,SCT060,0.24,VWS V14.01,2013-10-03 20:19:00,
2013-10-03 15:20:00,74.3,49.8,29.03,West,261,5.4,7.2,42,0.00,,SCT060,0.24,VWS V14.01,2013-10-03 20:20:00,
2013-10-03 15:22:00,73.9,49.4,29.03,WNW,284,5.8,6.7,42,0.00,,SCT060,0.24,VWS V14.01,2013-10-03 20:22:00,
2013-10-03 15:23:00,73.8,49.3,29.03,WNW,285,5.4,7.6,42,0.00,,SCT060,0.24,VWS V14.01,2013-10-03 20:23:00,
2013-10-03 15:25:00,73.4,48.9,29.03,West,279,8.7,8.7,42,0.00,,SCT060,0.24,VWS V14.01,2013-10-03 20:25:00,
2013-10-03 15:27:00,73.2,50.0,29.03,WSW,242,3.6,6.3,44,0.00,,SCT060,0.24,VWS V14.01,2013-10-03 20:27:00,
2013-10-03 15:28:00,73.0,49.9,29.03,WSW,255,7.2,8.3,44,0.00,,SCT060,0.24,VWS V14.01,2013-10-03 20:28:00,
2013-10-03 15:30:00,72.9,49.7,29.03,WSW,249,8.1,8.1,44,0.00,,SCT060,0.24,VWS V14.01,2013-10-03 20:30:00,
2013-10-03 15:32:00,72.9,49.7,29.03,NW,307,4.9,5.4,44,0.00,,FEW090,0.24,VWS V14.01,2013-10-03 20:32:00,
2013-10-03 15:33:00,72.9,49.7,29.03,NW,313,0.0,2.7,44,0.00,,FEW090,0.24,VWS V14.01,2013-10-03 20:33:00,
2013-10-03 15:34:00,72.9,49.7,29.03,WNW,302,2.2,2.2,44,0.00,,FEW090,0.24,VWS V14.01,2013-10-03 20:34:00,
2013-10-03 15:35:00,72.9,50.9,29.03,SSW,199,5.8,5.8,46,0.00,,FEW090,0.24,VWS V14.01,2013-10-03 20:35:00,
2013-10-03 15:38:00,72.7,50.7,29.00,SSE,154,3.6,5.8,46,0.00,,FEW090,0.24,VWS V14.01,2013-10-03 20:38:00,
2013-10-03 15:39:00,72.7,51.9,29.00,SSE,154,3.6,3.6,48,0.00,,FEW090,0.24,VWS V14.01,2013-10-03 20:39:00,
2013-10-03 15:40:00,72.7,51.9,29.00,South,172,3.6,3.6,48,0.00,,FEW090,0.24,VWS V14.01,2013-10-03 20:40:00,
2013-10-03 15:41:00,72.7,51.9,29.00,SSE,157,0.0,0.0,48,0.00,,FEW090,0.24,VWS V14.01,2013-10-03 20:41:00,
2013-10-03 15:44:00,72.7,51.9,29.00,SW,214,9.6,9.6,48,0.00,,FEW090,0.24,VWS V14.01,2013-10-03 20:44:00,
2013-10-03 15:46:00,72.7,54.1,29.00,SSW,203,3.6,12.8,52,0.00,,FEW090,0.24,VWS V14.01,2013-10-03 20:46:00,
2013-10-03 15:49:00,72.7,55.1,29.00,SW,225,13.2,18.3,54,0.00,,FEW090,0.24,VWS V14.01,2013-10-03 20:49:00,
2013-10-03 15:51:00,72.3,54.8,29.00,SSW,200,20.1,20.1,54,0.00,,FEW090,0.24,VWS V14.01,2013-10-03 20:51:00,
2013-10-03 15:54:00,71.2,56.7,29.03,SSW,206,12.8,13.2,60,0.04,,FEW090,0.28,VWS V14.01,2013-10-03 20:54:00,
2013-10-03 15:55:00,71.1,57.4,29.03,South,185,10.1,10.1,62,0.04,,FEW090,0.28,VWS V14.01,2013-10-03 20:55:00,
2013-10-03 15:56:00,70.9,58.1,29.03,South,182,13.6,13.6,64,0.04,,FEW090,0.28,VWS V14.01,2013-10-03 20:56:00,
2013-10-03 15:57:00,70.7,58.8,29.03,South,185,17.4,17.4,66,0.04,,FEW090,0.28,VWS V14.01,2013-10-03 20:57:00,
2013-10-03 16:00:00,70.5,60.3,29.03,South,175,13.2,17.4,70,0.04,,OVC042,0.28,VWS V14.01,2013-10-03 21:00:00,
2013-10-03 16:01:00,70.5,60.3,29.03,SSE,167,10.5,17.4,70,0.08,,OVC042,0.31,VWS V14.01,2013-10-03 21:01:00,
2013-10-03 16:02:00,70.5,60.3,29.03,SSE,162,13.2,13.2,70,0.08,,OVC042,0.31,VWS V14.01,2013-10-03 21:02:00,
2013-10-03 16:03:00,70.3,60.1,29.03,SSE,165,13.2,13.2,70,0.08,,OVC042,0.31,VWS V14.01,2013-10-03 21:03:00,
2013-10-03 16:05:00,70.2,59.1,29.03,SSE,147,8.1,14.5,68,0.08,,OVC042,0.31,VWS V14.01,2013-10-03 21:05:00,
2013-10-03 16:06:00,70.2,59.9,29.03,SSE,160,8.1,8.7,70,0.08,,OVC042,0.31,VWS V14.01,2013-10-03 21:06:00,
2013-10-03 16:07:00,70.2,59.9,29.03,South,172,8.3,8.7,70,0.08,,OVC042,0.31,VWS V14.01,2013-10-03 21:07:00,
2013-10-03 16:08:00,70.2,59.9,29.03,SSE,156,8.1,8.3,70,0.08,,OVC042,0.31,VWS V14.01,2013-10-03 21:08:00,
2013-10-03 16:10:00,70.2,59.9,29.00,SSE,163,4.0,7.6,70,0.08,,OVC042,0.31,VWS V14.01,2013-10-03 21:10:00,
2013-10-03 16:11:00,70.2,59.9,29.00,SSE,158,7.6,8.1,70,0.08,,OVC042,0.31,VWS V14.01,2013-10-03 21:11:00,
2013-10-03 16:12:00,70.2,59.9,29.00,SSE,163,5.8,5.8,70,0.08,,OVC042,0.31,VWS V14.01,2013-10-03 21:12:00,
2013-10-03 16:13:00,70.2,59.9,29.00,SSE,147,4.9,5.8,70,0.08,,OVC042,0.31,VWS V14.01,2013-10-03 21:13:00,
2013-10-03 16:15:00,70.2,59.9,29.00,East,97,3.6,4.0,70,0.08,,OVC042,0.31,VWS V14.01,2013-10-03 21:15:00,
2013-10-03 16:17:00,70.0,59.8,29.00,East,86,2.7,4.0,70,0.08,,OVC042,0.31,VWS V14.01,2013-10-03 21:17:00,
2013-10-03 16:18:00,70.0,59.8,29.00,East,86,0.0,2.7,70,0.08,,OVC042,0.31,VWS V14.01,2013-10-03 21:18:00,
2013-10-03 16:20:00,70.2,59.9,29.00,ENE,62,4.0,4.0,70,0.08,,OVC042,0.31,VWS V14.01,2013-10-03 21:20:00,
2013-10-03 16:22:00,70.0,59.8,29.00,NNE,23,6.3,6.3,70,0.08,,OVC042,0.31,VWS V14.01,2013-10-03 21:22:00,
2013-10-03 16:23:00,70.0,59.8,29.00,NNE,25,0.0,0.0,70,0.08,,OVC042,0.31,VWS V14.01,2013-10-03 21:23:00,
2013-10-03 16:24:00,69.8,59.6,28.97,NE,35,4.0,4.0,70,0.08,,OVC042,0.31,VWS V14.01,2013-10-03 21:24:00,
2013-10-03 16:25:00,69.8,58.8,28.97,NNE,25,3.1,3.1,68,0.08,,OVC042,0.31,VWS V14.01,2013-10-03 21:25:00,
2013-10-03 16:28:00,69.6,59.4,28.97,NNE,26,0.0,0.0,70,0.08,,OVC042,0.31,VWS V14.01,2013-10-03 21:28:00,
2013-10-03 16:29:00,69.6,59.4,28.97,NNE,26,4.0,4.0,70,0.08,,OVC042,0.31,VWS V14.01,2013-10-03 21:29:00,
2013-10-03 16:31:00,69.8,59.6,28.97,North,1,2.7,5.8,70,0.08,,OVC100,0.31,VWS V14.01,2013-10-03 21:31:00,
2013-10-03 16:33:00,69.8,59.6,28.97,SW,215,3.1,3.1,70,0.08,,OVC100,0.31,VWS V14.01,2013-10-03 21:33:00,
2013-10-03 16:34:00,69.8,59.6,28.97,South,177,0.0,3.1,70,0.08,,OVC100,0.31,VWS V14.01,2013-10-03 21:34:00,
2013-10-03 16:35:00,69.8,59.6,28.97,South,177,0.0,0.0,70,0.08,,OVC100,0.31,VWS V14.01,2013-10-03 21:35:00,
2013-10-03 16:36:00,70.0,59.8,28.97,South,177,0.0,0.0,70,0.08,,OVC100,0.31,VWS V14.01,2013-10-03 21:36:00,
2013-10-03 16:37:00,70.0,59.8,28.97,South,177,0.0,0.0,70,0.08,,OVC100,0.31,VWS V14.01,2013-10-03 21:37:00,
2013-10-03 16:38:00,70.2,59.9,28.97,SSW,210,3.1,3.1,70,0.08,,OVC100,0.31,VWS V14.01,2013-10-03 21:38:00,
2013-10-03 16:39:00,70.3,60.1,28.97,SSW,210,2.2,3.1,70,0.08,,OVC100,0.31,VWS V14.01,2013-10-03 21:39:00,
2013-10-03 16:40:00,70.3,60.1,28.97,West,261,4.0,7.2,70,0.08,,OVC100,0.31,VWS V14.01,2013-10-03 21:40:00,
2013-10-03 16:42:00,70.3,58.5,28.97,WNW,291,5.4,8.1,66,0.08,,OVC100,0.31,VWS V14.01,2013-10-03 21:42:00,
2013-10-03 16:44:00,70.5,58.6,28.97,WSW,246,4.9,5.4,66,0.08,,OVC100,0.31,VWS V14.01,2013-10-03 21:44:00,
2013-10-03 16:45:00,70.7,58.8,28.97,WSW,241,10.5,10.5,66,0.08,,OVC100,0.31,VWS V14.01,2013-10-03 21:45:00,
2013-10-03 16:48:00,70.9,55.4,28.97,NW,317,5.8,10.1,58,0.08,,OVC100,0.31,VWS V14.01,2013-10-03 21:48:00,
2013-10-03 16:49:00,71.1,55.5,28.97,NW,310,7.6,10.5,58,0.08,,OVC100,0.31,VWS V14.01,2013-10-03 21:49:00,
2013-10-03 16:50:00,71.1,56.5,28.97,WNW,295,5.4,8.3,60,0.08,,OVC100,0.31,VWS V14.01,2013-10-03 21:50:00,
2013-10-03 16:53:00,71.1,54.6,28.97,WSW,258,5.8,5.8,56,0.04,,OVC100,0.31,VWS V14.01,2013-10-03 21:53:00,
2013-10-03 16:54:00,71.1,53.6,28.97,SSW,209,8.3,8.3,54,0.04,,OVC100,0.31,VWS V14.01,2013-10-03 21:54:00,
2013-10-03 16:55:00,71.2,53.8,28.97,SSW,194,7.6,8.3,54,0.04,,OVC100,0.31,VWS V14.01,2013-10-03 21:55:00,
2013-10-03 16:56:00,71.2,51.7,28.97,SSW,202,8.1,8.7,50,0.04,,OVC100,0.31,VWS V14.01,2013-10-03 21:56:00,
2013-10-03 16:59:00,71.2,50.6,28.97,South,190,8.1,8.3,48,0.04,,OVC100,0.31,VWS V14.01,2013-10-03 21:59:00,
2013-10-03 17:00:00,71.2,50.6,28.97,South,183,7.6,8.7,48,0.04,,OVC100,0.31,VWS V14.01,2013-10-03 22:00:00,
2013-10-03 17:01:00,71.4,49.6,28.97,South,172,8.3,8.3,46,0.04,,-RA,0.31,VWS V14.01,2013-10-03 22:01:00,
2013-10-03 17:05:00,71.2,50.6,28.97,South,172,11.0,11.0,48,0.00,,-RA,0.31,VWS V14.01,2013-10-03 22:05:00,
2013-10-03 17:06:00,71.2,50.6,28.97,SSE,160,8.1,8.7,48,0.00,,-RA,0.31,VWS V14.01,2013-10-03 22:06:00,
2013-10-03 17:07:00,71.2,50.6,28.97,South,180,3.1,5.4,48,0.00,,-RA,0.31,VWS V14.01,2013-10-03 22:07:00,
2013-10-03 17:10:00,71.4,50.7,28.97,South,183,6.3,6.3,48,0.00,,-RA,0.31,VWS V14.01,2013-10-03 22:10:00,
2013-10-03 17:11:00,71.4,50.7,28.97,SSE,157,3.1,5.4,48,0.00,,-RA,0.31,VWS V14.01,2013-10-03 22:11:00,
2013-10-03 17:12:00,71.4,50.7,28.97,SSW,199,4.0,4.9,48,0.00,,-RA,0.31,VWS V14.01,2013-10-03 22:12:00,
2013-10-03 17:13:00,71.4,50.7,28.97,SSE,161,3.6,5.8,48,0.00,,-RA,0.31,VWS V14.01,2013-10-03 22:13:00,
2013-10-03 17:15:00,71.4,50.7,28.97,SE,146,6.3,11.0,48,0.00,,-RA,0.31,VWS V14.01,2013-10-03 22:15:00,
2013-10-03 17:17:00,71.6,50.9,28.97,SSE,147,6.3,7.6,48,0.00,,-RA,0.31,VWS V14.01,2013-10-03 22:17:00,
2013-10-03 17:19:00,71.6,50.9,28.97,SE,145,6.3,8.3,48,0.00,,-RA,0.31,VWS V14.01,2013-10-03 22:19:00,
2013-10-03 17:20:00,71.6,50.9,28.97,South,180,8.1,8.1,48,0.00,,-RA,0.31,VWS V14.01,2013-10-03 22:20:00,
2013-10-03 17:21:00,71.6,50.9,28.97,SE,137,4.0,8.7,48,0.00,,-RA,0.31,VWS V14.01,2013-10-03 22:21:00,
2013-10-03 17:22:00,71.6,50.9,28.97,SE,143,4.5,4.5,48,0.00,,-RA,0.31,VWS V14.01,2013-10-03 22:22:00,
2013-10-03 17:23:00,71.6,50.9,28.97,South,187,5.8,5.8,48,0.00,,-RA,0.31,VWS V14.01,2013-10-03 22:23:00,
2013-10-03 17:24:00,71.6,50.9,28.97,SSE,152,4.0,5.8,48,0.00,,-RA,0.31,VWS V14.01,2013-10-03 22:24:00,
2013-10-03 17:26:00,71.6,50.9,28.97,South,178,4.0,4.5,48,0.00,,-RA,0.31,VWS V14.01,2013-10-03 22:26:00,
2013-10-03 17:27:00,71.6,52.0,28.97,South,176,6.3,8.3,50,0.00,,-RA,0.31,VWS V14.01,2013-10-03 22:27:00,
2013-10-03 17:28:00,71.6,52.0,28.97,SSE,168,5.4,8.3,50,0.00,,-RA,0.31,VWS V14.01,2013-10-03 22:28:00,
2013-10-03 17:29:00,71.6,52.0,28.97,SSW,196,5.8,5.8,50,0.00,,-RA,0.31,VWS V14.01,2013-10-03 22:29:00,
2013-10-03 17:30:00,71.6,52.0,28.97,SSW,195,8.3,8.3,50,0.00,,-RA,0.31,VWS V14.01,2013-10-03 22:30:00,
2013-10-03 17:31:00,71.6,52.0,28.97,SSE,163,6.3,6.3,50,0.00,,-RA,0.31,VWS V14.01,2013-10-03 22:31:00,
2013-10-03 17:33:00,71.8,52.2,28.97,South,184,4.9,6.3,50,0.00,,-RA,0.31,VWS V14.01,2013-10-03 22:33:00,
2013-10-03 17:34:00,71.8,52.2,28.97,SSW,204,5.4,6.3,50,0.00,,-RA,0.31,VWS V14.01,2013-10-03 22:34:00,
2013-10-03 17:35:00,72.0,52.3,28.97,SSW,204,4.0,4.0,50,0.00,,-RA,0.31,VWS V14.01,2013-10-03 22:35:00,
2013-10-03 17:37:00,72.1,52.5,28.97,SSW,203,7.6,7.6,50,0.00,,-RA,0.31,VWS V14.01,2013-10-03 22:37:00,
2013-10-03 17:39:00,72.3,51.5,29.00,South,172,5.4,6.3,48,0.00,,-RA,0.31,VWS V14.01,2013-10-03 22:39:00,
2013-10-03 17:40:00,72.5,51.7,29.00,SSE,155,4.0,5.8,48,0.00,,-RA,0.31,VWS V14.01,2013-10-03 22:40:00,
2013-10-03 17:41:00,72.5,51.7,29.00,South,169,3.1,5.4,48,0.00,,-RA,0.31,VWS V14.01,2013-10-03 22:41:00,
2013-10-03 17:43:00,72.9,52.0,29.00,SSW,195,5.4,5.4,48,0.00,,-RA,0.31,VWS V14.01,2013-10-03 22:43:00,
2013-10-03 17:44:00,73.0,52.2,29.00,SSW,206,2.7,3.1,48,0.00,,-RA,0.31,VWS V14.01,2013-10-03 22:44:00,
2013-10-03 17:46:00,73.2,52.4,29.00,SSW,206,0.0,2.2,48,0.00,,-RA,0.31,VWS V14.01,2013-10-03 22:46:00,
2013-10-03 17:47:00,73.6,51.5,29.00,SSE,167,3.6,3.6,46,0.00,,-RA,0.31,VWS V14.01,2013-10-03 22:47:00,
2013-10-03 17:50:00,73.8,51.7,29.00,SSW,203,2.2,2.2,46,0.00,,-RA,0.31,VWS V14.01,2013-10-03 22:50:00,
2013-10-03 17:51:00,73.8,51.7,29.00,SSW,204,3.6,3.6,46,0.00,,-RA,0.31,VWS V14.01,2013-10-03 22:51:00,
2013-10-03 17:52:00,73.8,51.7,29.00,SSW,211,2.2,3.6,46,0.00,,-RA,0.31,VWS V14.01,2013-10-03 22:52:00,
2013-10-03 17:53:00,73.8,51.7,29.00,South,190,3.1,3.6,46,0.00,,-RA,0.31,VWS V14.01,2013-10-03 22:53:00,
2013-10-03 17:56:00,73.9,50.7,29.00,South,189,0.0,2.7,44,0.00,,-RA,0.31,VWS V14.01,2013-10-03 22:56:00,
2013-10-03 17:57:00,73.9,50.7,29.00,South,189,2.7,2.7,44,0.00,,-RA,0.31,VWS V14.01,2013-10-03 22:57:00,
2013-10-03 17:58:00,73.9,50.7,29.00,South,190,0.0,3.1,44,0.00,,-RA,0.31,VWS V14.01,2013-10-03 22:58:00,
2013-10-03 17:59:00,73.9,50.7,29.00,South,190,0.0,0.0,44,0.00,,-RA,0.31,VWS V14.01,2013-10-03 22:59:00,
2013-10-03 18:01:00,74.1,50.8,29.00,South,190,0.0,0.0,44,0.00,,-RA,0.31,VWS V14.01,2013-10-03 23:01:00,
2013-10-03 18:02:00,74.3,51.0,29.00,South,190,0.0,0.0,44,0.00,,-RA,0.31,VWS V14.01,2013-10-03 23:02:00,
2013-10-03 18:04:00,74.7,51.3,29.00,South,190,0.0,0.0,44,0.00,,-RA,0.31,VWS V14.01,2013-10-03 23:04:00,
2013-10-03 18:05:00,75.0,51.7,29.00,South,190,0.0,0.0,44,0.00,,-RA,0.31,VWS V14.01,2013-10-03 23:05:00,
2013-10-03 18:06:00,75.0,51.7,29.00,South,190,0.0,0.0,44,0.00,,-RA,0.31,VWS V14.01,2013-10-03 23:06:00,
2013-10-03 18:07:00,75.2,51.8,29.00,South,190,0.0,0.0,44,0.00,,-RA,0.31,VWS V14.01,2013-10-03 23:07:00,
2013-10-03 18:08:00,75.2,51.8,29.00,South,190,0.0,0.0,44,0.00,,-RA,0.31,VWS V14.01,2013-10-03 23:08:00,
2013-10-03 18:12:00,75.7,51.0,29.00,South,190,0.0,0.0,42,0.00,,-RA,0.31,VWS V14.01,2013-10-03 23:12:00,
2013-10-03 18:13:00,75.7,51.0,29.00,South,190,0.0,0.0,42,0.00,,-RA,0.31,VWS V14.01,2013-10-03 23:13:00,
2013-10-03 18:17:00,75.7,51.0,29.00,South,190,0.0,0.0,42,0.00,,-RA,0.31,VWS V14.01,2013-10-03 23:17:00,
2013-10-03 18:18:00,75.7,51.0,29.00,South,190,0.0,0.0,42,0.00,,-RA,0.31,VWS V14.01,2013-10-03 23:18:00,
2013-10-03 18:19:00,75.6,50.9,29.00,South,190,0.0,0.0,42,0.00,,-RA,0.31,VWS V14.01,2013-10-03 23:19:00,
2013-10-03 18:20:00,75.6,50.9,29.00,South,190,0.0,0.0,42,0.00,,-RA,0.31,VWS V14.01,2013-10-03 23:20:00,
2013-10-03 18:22:00,75.4,50.7,29.00,South,190,0.0,0.0,42,0.00,,-RA,0.31,VWS V14.01,2013-10-03 23:22:00,
2013-10-03 18:23:00,75.2,50.6,29.03,South,190,0.0,0.0,42,0.00,,-RA,0.31,VWS V14.01,2013-10-03 23:23:00,
2013-10-03 18:24:00,75.2,50.6,29.03,South,190,0.0,0.0,42,0.00,,-RA,0.31,VWS V14.01,2013-10-03 23:24:00,
2013-10-03 18:25:00,75.2,49.2,29.03,South,190,0.0,0.0,40,0.00,,-RA,0.31,VWS V14.01,2013-10-03 23:25:00,
2013-10-03 18:27:00,74.8,50.2,29.03,South,190,0.0,0.0,42,0.00,,-RA,0.31,VWS V14.01,2013-10-03 23:27:00,
2013-10-03 18:29:00,74.5,49.9,29.03,South,190,0.0,0.0,42,0.00,,-RA,0.31,VWS V14.01,2013-10-03 23:29:00,
2013-10-03 18:30:00,74.5,49.9,29.03,South,190,0.0,0.0,42,0.00,,-RA,0.31,VWS V14.01,2013-10-03 23:30:00,
2013-10-03 18:32:00,73.9,49.4,29.03,South,190,0.0,0.0,42,0.00,,-RA,0.31,VWS V14.01,2013-10-03 23:32:00,
2013-10-03 18:33:00,73.9,49.4,29.03,South,190,0.0,0.0,42,0.00,,-RA,0.31,VWS V14.01,2013-10-03 23:33:00,
2013-10-03 18:34:00,73.6,49.1,29.03,South,190,0.0,0.0,42,0.00,,-RA,0.31,VWS V14.01,2013-10-03 23:34:00,
2013-10-03 18:35:00,73.6,49.1,29.03,South,190,0.0,0.0,42,0.00,,-RA,0.31,VWS V14.01,2013-10-03 23:35:00,
2013-10-03 18:36:00,73.4,48.9,29.03,South,190,0.0,0.0,42,0.00,,-RA,0.31,VWS V14.01,2013-10-03 23:36:00,
2013-10-03 18:38:00,73.0,49.9,29.03,South,190,0.0,0.0,44,0.00,,-RA,0.31,VWS V14.01,2013-10-03 23:38:00,
2013-10-03 18:39:00,72.9,49.7,29.03,South,190,0.0,0.0,44,0.00,,-RA,0.31,VWS V14.01,2013-10-03 23:39:00,
2013-10-03 18:40:00,72.7,49.5,29.03,South,190,0.0,0.0,44,0.00,,-RA,0.31,VWS V14.01,2013-10-03 23:40:00,
2013-10-03 18:42:00,72.5,49.4,29.03,South,190,0.0,0.0,44,0.00,,-RA,0.31,VWS V14.01,2013-10-03 23:42:00,
2013-10-03 18:44:00,72.1,49.0,29.03,South,190,0.0,0.0,44,0.00,,-RA,0.31,VWS V14.01,2013-10-03 23:44:00,
2013-10-03 18:45:00,72.1,49.0,29.03,South,190,0.0,0.0,44,0.00,,-RA,0.31,VWS V14.01,2013-10-03 23:45:00,
2013-10-03 18:46:00,71.8,48.7,29.03,South,190,0.0,0.0,44,0.00,,-RA,0.31,VWS V14.01,2013-10-03 23:46:00,
2013-10-03 18:47:00,71.8,49.9,29.03,South,190,0.0,0.0,46,0.00,,-RA,0.31,VWS V14.01,2013-10-03 23:47:00,
2013-10-03 18:48:00,71.8,49.9,29.03,South,190,0.0,0.0,46,0.00,,-RA,0.31,VWS V14.01,2013-10-03 23:48:00,
2013-10-03 18:50:00,71.4,49.6,29.03,South,190,0.0,0.0,46,0.00,,-RA,0.31,VWS V14.01,2013-10-03 23:50:00,
2013-10-03 18:51:00,71.2,50.6,29.03,South,190,0.0,0.0,48,0.00,,-RA,0.31,VWS V14.01,2013-10-03 23:51:00,
2013-10-03 18:52:00,71.2,51.7,29.03,South,190,0.0,0.0,50,0.00,,-RA,0.31,VWS V14.01,2013-10-03 23:52:00,
2013-10-03 18:55:00,71.1,51.5,29.03,South,190,0.0,0.0,50,0.00,,-RA,0.31,VWS V14.01,2013-10-03 23:55:00,
2013-10-03 18:57:00,70.9,52.4,29.03,South,190,0.0,0.0,52,0.00,,-RA,0.31,VWS V14.01,2013-10-03 23:57:00,
2013-10-03 19:00:00,70.5,53.1,29.03,South,190,0.0,0.0,54,0.00,,-RA,0.31,VWS V14.01,2013-10-04 00:00:00,
2013-10-03 19:01:00,70.5,53.1,29.03,South,190,0.0,0.0,54,0.00,,-RA,0.31,VWS V14.01,2013-10-04 00:01:00,
2013-10-03 19:02:00,70.5,53.1,29.03,South,190,0.0,0.0,54,0.00,,-RA,0.31,VWS V14.01,2013-10-04 00:02:00,
2013-10-03 19:03:00,70.5,53.1,29.03,South,190,0.0,0.0,54,0.00,,-RA,0.31,VWS V14.01,2013-10-04 00:03:00,
2013-10-03 19:05:00,70.3,53.9,29.03,South,190,0.0,0.0,56,0.00,,-RA,0.31,VWS V14.01,2013-10-04 00:05:00,
2013-10-03 19:07:00,70.3,54.9,29.03,South,190,0.0,0.0,58,0.00,,-RA,0.31,VWS V14.01,2013-10-04 00:07:00,
2013-10-03 19:08:00,70.2,54.7,29.03,South,190,0.0,0.0,58,0.00,,-RA,0.31,VWS V14.01,2013-10-04 00:08:00,
2013-10-03 19:09:00,70.2,54.7,29.03,South,190,0.0,0.0,58,0.00,,-RA,0.31,VWS V14.01,2013-10-04 00:09:00,
2013-10-03 19:10:00,70.2,54.7,29.03,South,190,0.0,0.0,58,0.00,,-RA,0.31,VWS V14.01,2013-10-04 00:10:00,
2013-10-03 19:11:00,70.2,55.6,29.03,South,190,0.0,0.0,60,0.00,,-RA,0.31,VWS V14.01,2013-10-04 00:11:00,
2013-10-03 19:14:00,70.0,56.4,29.03,South,190,0.0,0.0,62,0.00,,-RA,0.31,VWS V14.01,2013-10-04 00:14:00,
2013-10-03 19:15:00,70.0,56.4,29.03,South,190,0.0,0.0,62,0.00,,-RA,0.31,VWS V14.01,2013-10-04 00:15:00,
2013-10-03 19:17:00,69.8,57.1,29.03,South,190,0.0,0.0,64,0.00,,-RA,0.31,VWS V14.01,2013-10-04 00:17:00,
2013-10-03 19:19:00,69.8,57.1,29.03,South,190,0.0,0.0,64,0.00,,-RA,0.31,VWS V14.01,2013-10-04 00:19:00,
2013-10-03 19:20:00,69.8,57.1,29.03,South,190,0.0,0.0,64,0.00,,-RA,0.31,VWS V14.01,2013-10-04 00:20:00,
2013-10-03 19:21:00,69.8,57.1,29.03,South,190,0.0,0.0,64,0.00,,-RA,0.31,VWS V14.01,2013-10-04 00:21:00,
2013-10-03 19:24:00,69.6,57.8,29.03,South,181,0.0,0.0,66,0.00,,-RA,0.31,VWS V14.01,2013-10-04 00:24:00,
2013-10-03 19:25:00,69.6,57.8,29.03,South,181,0.0,0.0,66,0.00,,-RA,0.31,VWS V14.01,2013-10-04 00:25:00,
2013-10-03 19:27:00,69.6,57.8,29.03,South,181,0.0,0.0,66,0.00,,-RA,0.31,VWS V14.01,2013-10-04 00:27:00,
2013-10-03 19:28:00,69.4,57.6,29.03,South,181,0.0,0.0,66,0.00,,-RA,0.31,VWS V14.01,2013-10-04 00:28:00,
2013-10-03 19:29:00,69.4,57.6,29.03,South,181,0.0,0.0,66,0.00,,-RA,0.31,VWS V14.01,2013-10-04 00:29:00,
2013-10-03 19:30:00,69.4,57.6,29.03,South,181,0.0,0.0,66,0.00,,-RA,0.31,VWS V14.01,2013-10-04 00:30:00,
2013-10-03 19:31:00,69.4,57.6,29.03,South,181,0.0,0.0,66,0.00,,-RA,0.31,VWS V14.01,2013-10-04 00:31:00,
2013-10-03 19:32:00,69.4,57.6,29.03,South,181,0.0,0.0,66,0.00,,-RA,0.31,VWS V14.01,2013-10-04 00:32:00,
2013-10-03 19:33:00,69.4,57.6,29.03,South,181,0.0,0.0,66,0.00,,-RA,0.31,VWS V14.01,2013-10-04 00:33:00,
2013-10-03 19:35:00,69.4,57.6,29.03,South,181,0.0,0.0,66,0.00,,-RA,0.31,VWS V14.01,2013-10-04 00:35:00,
2013-10-03 19:37:00,69.3,58.3,29.03,South,175,0.0,0.0,68,0.00,,-RA,0.31,VWS V14.01,2013-10-04 00:37:00,
2013-10-03 19:38:00,69.3,58.3,29.03,East,95,0.0,0.0,68,0.00,,-RA,0.31,VWS V14.01,2013-10-04 00:38:00,
2013-10-03 19:39:00,69.3,58.3,29.03,East,95,0.0,0.0,68,0.00,,-RA,0.31,VWS V14.01,2013-10-04 00:39:00,
2013-10-03 19:40:00,69.4,58.4,29.03,East,94,0.0,0.0,68,0.00,,-RA,0.31,VWS V14.01,2013-10-04 00:40:00,
2013-10-03 19:42:00,69.4,59.2,29.03,East,95,0.0,0.0,70,0.00,,-RA,0.31,VWS V14.01,2013-10-04 00:42:00,
2013-10-03 19:43:00,69.4,59.2,29.03,East,94,0.0,0.0,70,0.00,,-RA,0.31,VWS V14.01,2013-10-04 00:43:00,
2013-10-03 19:44:00,69.4,59.2,29.03,East,94,0.0,0.0,70,0.00,,-RA,0.31,VWS V14.01,2013-10-04 00:44:00,
2013-10-03 19:45:00,69.4,59.2,29.03,East,95,0.0,0.0,70,0.00,,-RA,0.31,VWS V14.01,2013-10-04 00:45:00,
2013-10-03 19:46:00,69.4,59.2,29.03,East,95,0.0,0.0,70,0.00,,-RA,0.31,VWS V14.01,2013-10-04 00:46:00,
2013-10-03 19:47:00,69.4,59.2,29.03,East,94,0.0,0.0,70,0.00,,-RA,0.31,VWS V14.01,2013-10-04 00:47:00,
2013-10-03 19:48:00,69.3,59.1,29.03,East,94,0.0,0.0,70,0.00,,-RA,0.31,VWS V14.01,2013-10-04 00:48:00,
2013-10-03 19:49:00,69.4,59.2,29.03,East,94,0.0,0.0,70,0.00,,-RA,0.31,VWS V14.01,2013-10-04 00:49:00,
2013-10-03 19:50:00,69.3,59.1,29.03,East,94,0.0,0.0,70,0.00,,-RA,0.31,VWS V14.01,2013-10-04 00:50:00,
2013-10-03 19:51:00,69.3,59.1,29.03,East,94,0.0,0.0,70,0.00,,-RA,0.31,VWS V14.01,2013-10-04 00:51:00,
2013-10-03 19:53:00,69.3,59.1,29.03,East,95,0.0,0.0,70,0.00,,-RA,0.31,VWS V14.01,2013-10-04 00:53:00,
2013-10-03 19:55:00,69.3,59.1,29.03,East,95,0.0,0.0,70,0.00,,-RA,0.31,VWS V14.01,2013-10-04 00:55:00,
2013-10-03 19:56:00,69.3,59.1,29.03,East,95,0.0,0.0,70,0.00,,-RA,0.31,VWS V14.01,2013-10-04 00:56:00,
2013-10-03 19:58:00,69.3,59.9,29.03,East,95,0.0,0.0,72,0.00,,-RA,0.31,VWS V14.01,2013-10-04 00:58:00,
2013-10-03 20:00:00,69.3,59.9,29.03,East,95,0.0,0.0,72,0.00,,-RA,0.31,VWS V14.01,2013-10-04 01:00:00,
2013-10-03 20:01:00,69.3,59.9,29.03,East,95,0.0,0.0,72,0.00,,-RA,0.31,VWS V14.01,2013-10-04 01:01:00,
2013-10-03 20:02:00,69.3,59.9,29.03,East,94,0.0,0.0,72,0.00,,-RA,0.31,VWS V14.01,2013-10-04 01:02:00,
2013-10-03 20:03:00,69.3,59.9,29.03,East,94,0.0,0.0,72,0.00,,-RA,0.31,VWS V14.01,2013-10-04 01:03:00,
2013-10-03 20:05:00,69.3,59.9,29.03,East,94,0.0,0.0,72,0.00,,-RA,0.31,VWS V14.01,2013-10-04 01:05:00,
2013-10-03 20:06:00,69.3,59.9,29.03,East,94,0.0,0.0,72,0.00,,-RA,0.31,VWS V14.01,2013-10-04 01:06:00,
2013-10-03 20:07:00,69.3,59.9,29.03,East,95,0.0,0.0,72,0.00,,-RA,0.31,VWS V14.01,2013-10-04 01:07:00,
2013-10-03 20:10:00,69.3,60.6,29.03,East,95,0.0,0.0,74,0.00,,-RA,0.31,VWS V14.01,2013-10-04 01:10:00,
2013-10-03 20:11:00,69.3,60.6,29.03,East,95,0.0,0.0,74,0.00,,-RA,0.31,VWS V14.01,2013-10-04 01:11:00,
2013-10-03 20:12:00,69.3,60.6,29.03,East,94,0.0,0.0,74,0.00,,-RA,0.31,VWS V14.01,2013-10-04 01:12:00,
2013-10-03 20:13:00,69.3,60.6,29.03,East,95,0.0,0.0,74,0.00,,-RA,0.31,VWS V14.01,2013-10-04 01:13:00,
2013-10-03 20:15:00,69.3,60.6,29.03,East,94,0.0,0.0,74,0.00,,-RA,0.31,VWS V14.01,2013-10-04 01:15:00,
2013-10-03 20:17:00,69.3,60.6,29.03,East,94,0.0,0.0,74,0.00,,-RA,0.31,VWS V14.01,2013-10-04 01:17:00,
2013-10-03 20:19:00,69.3,60.6,29.03,East,94,0.0,0.0,74,0.00,,-RA,0.31,VWS V14.01,2013-10-04 01:19:00,
2013-10-03 20:22:00,69.4,61.5,29.03,East,94,0.0,0.0,76,0.00,,-RA,0.31,VWS V14.01,2013-10-04 01:22:00,
2013-10-03 20:23:00,69.4,61.5,29.03,East,95,0.0,0.0,76,0.00,,-RA,0.31,VWS V14.01,2013-10-04 01:23:00,
2013-10-03 20:24:00,69.4,61.5,29.03,East,95,0.0,0.0,76,0.00,,-RA,0.31,VWS V14.01,2013-10-04 01:24:00,
2013-10-03 20:25:00,69.3,61.4,29.03,East,94,0.0,0.0,76,0.00,,-RA,0.31,VWS V14.01,2013-10-04 01:25:00,
2013-10-03 20:27:00,69.3,61.4,29.03,East,95,0.0,0.0,76,0.00,,-RA,0.31,VWS V14.01,2013-10-04 01:27:00,
2013-10-03 20:28:00,69.3,61.4,29.03,East,95,0.0,0.0,76,0.00,,-RA,0.31,VWS V14.01,2013-10-04 01:28:00,
2013-10-03 20:30:00,69.4,61.5,29.03,East,95,0.0,0.0,76,0.00,,-RA,0.31,VWS V14.01,2013-10-04 01:30:00,
2013-10-03 20:31:00,69.3,61.4,29.03,East,94,0.0,0.0,76,0.00,,-RA,0.31,VWS V14.01,2013-10-04 01:31:00,
2013-10-03 20:33:00,69.3,62.1,29.03,East,94,0.0,0.0,78,0.00,,-RA,0.31,VWS V14.01,2013-10-04 01:33:00,
2013-10-03 20:34:00,69.3,62.1,29.03,East,94,0.0,0.0,78,0.00,,-RA,0.31,VWS V14.01,2013-10-04 01:34:00,
2013-10-03 20:36:00,69.4,62.3,29.03,East,95,0.0,0.0,78,0.00,,-RA,0.31,VWS V14.01,2013-10-04 01:36:00,
2013-10-03 20:37:00,69.4,62.3,29.03,East,94,0.0,0.0,78,0.00,,-RA,0.31,VWS V14.01,2013-10-04 01:37:00,
2013-10-03 20:38:00,69.4,62.3,29.03,East,94,0.0,0.0,78,0.00,,-RA,0.31,VWS V14.01,2013-10-04 01:38:00,
2013-10-03 20:39:00,69.4,62.3,29.03,East,94,0.0,0.0,78,0.00,,-RA,0.31,VWS V14.01,2013-10-04 01:39:00,
2013-10-03 20:40:00,69.4,62.3,29.03,East,95,0.0,0.0,78,0.00,,-RA,0.31,VWS V14.01,2013-10-04 01:40:00,
2013-10-03 20:42:00,69.4,62.3,29.03,East,95,0.0,0.0,78,0.00,,-RA,0.31,VWS V14.01,2013-10-04 01:42:00,
2013-10-03 20:44:00,69.3,62.1,29.03,East,95,0.0,0.0,78,0.00,,-RA,0.31,VWS V14.01,2013-10-04 01:44:00,
2013-10-03 20:45:00,69.3,62.8,29.03,East,94,0.0,0.0,80,0.00,,-RA,0.31,VWS V14.01,2013-10-04 01:45:00,
2013-10-03 20:46:00,69.3,62.8,29.03,East,94,0.0,0.0,80,0.00,,-RA,0.31,VWS V14.01,2013-10-04 01:46:00,
2013-10-03 20:49:00,69.4,63.0,29.03,East,94,0.0,0.0,80,0.00,,-RA,0.31,VWS V14.01,2013-10-04 01:49:00,
2013-10-03 20:51:00,69.4,63.7,29.03,East,94,0.0,0.0,82,0.00,,-RA,0.31,VWS V14.01,2013-10-04 01:51:00,
2013-10-03 20:53:00,69.4,63.7,29.03,East,95,0.0,0.0,82,0.00,,-RA,0.31,VWS V14.01,2013-10-04 01:53:00,
2013-10-03 20:55:00,69.4,63.7,29.06,East,95,0.0,0.0,82,0.00,,-RA,0.31,VWS V14.01,2013-10-04 01:55:00,
2013-10-03 20:56:00,69.4,63.7,29.06,East,100,0.0,0.0,82,0.00,,-RA,0.31,VWS V14.01,2013-10-04 01:56:00,
2013-10-03 20:58:00,69.6,64.6,29.06,ESE,102,0.0,0.0,84,0.00,,-RA,0.31,VWS V14.01,2013-10-04 01:58:00,
2013-10-03 21:00:00,69.6,64.6,29.06,ESE,102,0.0,0.0,84,0.00,,-RA,0.31,VWS V14.01,2013-10-04 02:00:00,
2013-10-03 21:01:00,69.6,64.6,29.06,ESE,115,0.0,0.0,84,0.00,,-RA,0.31,VWS V14.01,2013-10-04 02:01:00,
2013-10-03 21:02:00,69.6,64.6,29.06,SSE,154,2.7,3.1,84,0.00,,-RA,0.31,VWS V14.01,2013-10-04 02:02:00,
2013-10-03 21:04:00,69.6,64.6,29.06,SSE,154,0.0,0.0,84,0.00,,-RA,0.31,VWS V14.01,2013-10-04 02:04:00,
2013-10-03 21:05:00,69.6,64.6,29.06,SSE,164,2.7,3.1,84,0.00,,-RA,0.31,VWS V14.01,2013-10-04 02:05:00,
2013-10-03 21:06:00,69.6,64.6,29.06,SSE,164,0.0,3.1,84,0.00,,-RA,0.31,VWS V14.01,2013-10-04 02:06:00,
2013-10-03 21:07:00,69.6,64.6,29.06,SSE,164,0.0,3.1,84,0.00,,-RA,0.31,VWS V14.01,2013-10-04 02:07:00,
2013-10-03 21:08:00,69.6,64.6,29.06,SSE,164,0.0,0.0,84,0.00,,-RA,0.31,VWS V14.01,2013-10-04 02:08:00,
2013-10-03 21:09:00,69.6,64.6,29.06,SSE,147,4.0,4.0,84,0.00,,-RA,0.31,VWS V14.01,2013-10-04 02:09:00,
2013-10-03 21:11:00,69.6,64.6,29.06,SSE,168,2.7,2.7,84,0.00,,-RA,0.31,VWS V14.01,2013-10-04 02:11:00,
2013-10-03 21:12:00,69.6,64.6,29.06,SSE,162,0.0,2.2,84,0.00,,-RA,0.31,VWS V14.01,2013-10-04 02:12:00,
2013-10-03 21:14:00,69.6,64.6,29.06,SSE,165,4.9,4.9,84,0.00,,-RA,0.31,VWS V14.01,2013-10-04 02:14:00,
2013-10-03 21:15:00,69.6,64.6,29.06,SSE,163,4.0,5.4,84,0.00,,-RA,0.31,VWS V14.01,2013-10-04 02:15:00,
2013-10-03 21:17:00,69.6,64.6,29.06,SSE,154,3.6,3.6,84,0.00,,-RA,0.31,VWS V14.01,2013-10-04 02:17:00,
2013-10-03 21:18:00,69.8,64.8,29.06,SSE,161,3.1,3.1,84,0.00,,-RA,0.31,VWS V14.01,2013-10-04 02:18:00,
2013-10-03 21:19:00,69.8,64.8,29.06,SSE,162,2.7,3.1,84,0.00,,-RA,0.31,VWS V14.01,2013-10-04 02:19:00,
2013-10-03 21:21:00,69.8,64.8,29.06,SSE,163,4.9,4.9,84,0.00,,-RA,0.31,VWS V14.01,2013-10-04 02:21:00,
2013-10-03 21:22:00,69.8,64.8,29.06,SSE,163,5.4,5.4,84,0.00,,-RA,0.31,VWS V14.01,2013-10-04 02:22:00,
2013-10-03 21:24:00,70.0,65.6,29.06,ESE,120,2.2,3.6,86,0.00,,-RA,0.31,VWS V14.01,2013-10-04 02:24:00,
2013-10-03 21:25:00,70.0,65.6,29.06,SE,138,3.1,3.6,86,0.00,,-RA,0.31,VWS V14.01,2013-10-04 02:25:00,
2013-10-03 21:26:00,70.0,65.6,29.06,SSE,148,4.0,4.0,86,0.00,,-RA,0.31,VWS V14.01,2013-10-04 02:26:00,
2013-10-03 21:27:00,70.0,65.6,29.06,SSE,152,3.1,4.0,86,0.00,,-RA,0.31,VWS V14.01,2013-10-04 02:27:00,
2013-10-03 21:29:00,70.0,65.6,29.06,East,90,2.2,3.6,86,0.00,,-RA,0.31,VWS V14.01,2013-10-04 02:29:00,
2013-10-03 21:30:00,70.0,65.6,29.06,East,98,0.0,0.0,86,0.00,,-RA,0.31,VWS V14.01,2013-10-04 02:30:00,
2013-10-03 21:31:00,70.2,65.8,29.06,East,98,0.0,2.2,86,0.00,,-RA,0.31,VWS V14.01,2013-10-04 02:31:00,
2013-10-03 21:32:00,70.0,65.6,29.06,East,95,0.0,2.2,86,0.00,,-RA,0.31,VWS V14.01,2013-10-04 02:32:00,
2013-10-03 21:33:00,70.0,64.9,29.06,East,95,0.0,2.2,84,0.00,,-RA,0.31,VWS V14.01,2013-10-04 02:33:00,
2013-10-03 21:35:00,70.0,64.9,29.06,East,95,0.0,0.0,84,0.00,,-RA,0.31,VWS V14.01,2013-10-04 02:35:00,
2013-10-03 21:36:00,70.0,64.9,29.06,East,95,0.0,0.0,84,0.00,,-RA,0.31,VWS V14.01,2013-10-04 02:36:00,
2013-10-03 21:37:00,69.8,64.8,29.06,East,95,0.0,0.0,84,0.00,,-RA,0.31,VWS V14.01,2013-10-04 02:37:00,
2013-10-03 21:38:00,69.8,64.8,29.06,East,95,0.0,0.0,84,0.00,,-RA,0.31,VWS V14.01,2013-10-04 02:38:00,
2013-10-03 21:40:00,69.6,64.6,29.06,East,95,0.0,0.0,84,0.00,,-RA,0.31,VWS V14.01,2013-10-04 02:40:00,
2013-10-03 21:41:00,69.6,64.6,29.06,East,95,0.0,0.0,84,0.00,,-RA,0.31,VWS V14.01,2013-10-04 02:41:00,
2013-10-03 21:42:00,69.6,64.6,29.06,East,95,0.0,0.0,84,0.00,,-RA,0.31,VWS V14.01,2013-10-04 02:42:00,
2013-10-03 21:44:00,69.6,65.2,29.06,East,95,0.0,0.0,86,0.00,,-RA,0.31,VWS V14.01,2013-10-04 02:44:00,
2013-10-03 21:46:00,69.4,65.1,29.06,East,95,0.0,0.0,86,0.00,,-RA,0.31,VWS V14.01,2013-10-04 02:46:00,
2013-10-03 21:47:00,69.4,64.4,29.06,East,95,0.0,0.0,84,0.00,,-RA,0.31,VWS V14.01,2013-10-04 02:47:00,
2013-10-03 21:48:00,69.4,64.4,29.06,East,95,0.0,0.0,84,0.00,,-RA,0.31,VWS V14.01,2013-10-04 02:48:00,
2013-10-03 21:50:00,69.3,64.2,29.06,East,95,0.0,0.0,84,0.00,,-RA,0.31,VWS V14.01,2013-10-04 02:50:00,
2013-10-03 21:52:00,69.3,64.2,29.06,East,95,0.0,0.0,84,0.00,,-RA,0.31,VWS V14.01,2013-10-04 02:52:00,
2013-10-03 21:53:00,69.1,64.1,29.06,East,95,0.0,0.0,84,0.00,,-RA,0.31,VWS V14.01,2013-10-04 02:53:00,
2013-10-03 21:54:00,69.1,64.7,29.06,East,95,0.0,0.0,86,0.00,,-RA,0.31,VWS V14.01,2013-10-04 02:54:00,
2013-10-03 21:56:00,69.1,64.7,29.06,East,95,0.0,0.0,86,0.00,,-RA,0.31,VWS V14.01,2013-10-04 02:56:00,
2013-10-03 21:58:00,69.1,64.7,29.06,East,95,0.0,0.0,86,0.00,,-RA,0.31,VWS V14.01,2013-10-04 02:58:00,
2013-10-03 21:59:00,69.1,64.7,29.06,East,95,0.0,0.0,86,0.00,,-RA,0.31,VWS V14.01,2013-10-04 02:59:00,
2013-10-03 22:00:00,69.1,64.7,29.06,East,95,0.0,0.0,86,0.00,,-RA,0.31,VWS V14.01,2013-10-04 03:00:00,
2013-10-03 22:02:00,68.9,64.6,29.06,East,95,0.0,0.0,86,0.00,,-RA,0.31,VWS V14.01,2013-10-04 03:02:00,
2013-10-03 22:03:00,68.9,64.6,29.06,East,95,0.0,0.0,86,0.00,,-RA,0.31,VWS V14.01,2013-10-04 03:03:00,
2013-10-03 22:04:00,68.9,64.6,29.06,East,95,0.0,0.0,86,0.00,,-RA,0.31,VWS V14.01,2013-10-04 03:04:00,
2013-10-03 22:06:00,68.9,64.6,29.06,East,95,0.0,0.0,86,0.00,,-RA,0.31,VWS V14.01,2013-10-04 03:06:00,
2013-10-03 22:08:00,68.9,64.6,29.09,East,95,0.0,0.0,86,0.00,,-RA,0.31,VWS V14.01,2013-10-04 03:08:00,
2013-10-03 22:09:00,68.9,64.6,29.09,East,95,0.0,0.0,86,0.00,,-RA,0.31,VWS V14.01,2013-10-04 03:09:00,
2013-10-03 22:11:00,68.5,64.2,29.09,East,95,0.0,0.0,86,0.00,,-RA,0.31,VWS V14.01,2013-10-04 03:11:00,
2013-10-03 22:12:00,68.5,64.2,29.09,East,95,0.0,0.0,86,0.00,,-RA,0.31,VWS V14.01,2013-10-04 03:12:00,
2013-10-03 22:13:00,68.5,64.2,29.09,East,95,0.0,0.0,86,0.00,,-RA,0.31,VWS V14.01,2013-10-04 03:13:00,
2013-10-03 22:14:00,68.5,64.2,29.09,East,95,0.0,0.0,86,0.00,,-RA,0.31,VWS V14.01,2013-10-04 03:14:00,
2013-10-03 22:16:00,68.4,64.0,29.09,East,95,0.0,0.0,86,0.00,,-RA,0.31,VWS V14.01,2013-10-04 03:16:00,
2013-10-03 22:17:00,68.4,64.0,29.09,East,95,0.0,0.0,86,0.00,,-RA,0.31,VWS V14.01,2013-10-04 03:17:00,
2013-10-03 22:19:00,68.4,64.7,29.09,East,95,0.0,0.0,88,0.00,,-RA,0.00,VWS V14.01,2013-10-04 03:19:00,
2013-10-03 22:21:00,68.2,64.5,29.09,East,95,0.0,0.0,88,0.00,,-RA,0.31,VWS V14.01,2013-10-04 03:21:00,
2013-10-03 22:22:00,68.2,64.5,29.09,East,95,0.0,0.0,88,0.00,,-RA,0.31,VWS V14.01,2013-10-04 03:22:00,
2013-10-03 22:23:00,68.2,64.5,29.09,East,95,0.0,0.0,88,0.00,,-RA,0.31,VWS V14.01,2013-10-04 03:23:00,
2013-10-03 22:24:00,68.2,64.5,29.09,East,95,0.0,0.0,88,0.00,,-RA,0.31,VWS V14.01,2013-10-04 03:24:00,
2013-10-03 22:25:00,68.2,64.5,29.09,East,95,0.0,0.0,88,0.00,,-RA,0.31,VWS V14.01,2013-10-04 03:25:00,
2013-10-03 22:27:00,68.0,64.3,29.09,East,95,0.0,0.0,88,0.00,,-RA,0.31,VWS V14.01,2013-10-04 03:27:00,
2013-10-03 22:28:00,68.0,64.3,29.09,East,95,0.0,0.0,88,0.00,,-RA,0.31,VWS V14.01,2013-10-04 03:28:00,
2013-10-03 22:29:00,68.0,64.3,29.09,East,95,0.0,0.0,88,0.00,,-RA,0.31,VWS V14.01,2013-10-04 03:29:00,
2013-10-03 22:30:00,68.2,64.5,29.09,East,95,0.0,0.0,88,0.00,,-RA,0.31,VWS V14.01,2013-10-04 03:30:00,
2013-10-03 22:31:00,68.4,65.3,29.09,East,95,0.0,0.0,90,0.00,,-RA,0.31,VWS V14.01,2013-10-04 03:31:00,
2013-10-03 22:32:00,68.4,65.3,29.09,East,95,0.0,0.0,90,0.00,,-RA,0.31,VWS V14.01,2013-10-04 03:32:00,
2013-10-03 22:34:00,68.5,66.1,29.09,East,95,0.0,0.0,92,0.00,,-RA,0.31,VWS V14.01,2013-10-04 03:34:00,
2013-10-03 22:36:00,68.5,66.1,29.09,East,99,0.0,0.0,92,0.00,,-RA,0.31,VWS V14.01,2013-10-04 03:36:00,
2013-10-03 22:37:00,68.5,66.1,29.09,East,100,2.2,2.2,92,0.00,,-RA,0.31,VWS V14.01,2013-10-04 03:37:00,
2013-10-03 22:38:00,68.5,66.1,29.09,East,100,2.7,2.7,92,0.00,,-RA,0.31,VWS V14.01,2013-10-04 03:38:00,
2013-10-03 22:40:00,68.7,66.9,29.09,SE,131,0.0,0.0,94,0.00,,-RA,0.31,VWS V14.01,2013-10-04 03:40:00,
2013-10-03 22:41:00,68.7,66.9,29.09,SE,135,2.2,2.7,94,0.00,,-RA,0.31,VWS V14.01,2013-10-04 03:41:00,
2013-10-03 22:42:00,68.7,66.9,29.09,SE,135,0.0,0.0,94,0.00,,-RA,0.31,VWS V14.01,2013-10-04 03:42:00,
2013-10-03 22:44:00,68.7,67.5,29.09,SSE,160,0.0,0.0,96,0.00,,-RA,0.31,VWS V14.01,2013-10-04 03:44:00,
2013-10-03 22:46:00,68.7,67.5,29.09,SSE,162,2.2,2.7,96,0.00,,-RA,0.31,VWS V14.01,2013-10-04 03:46:00,
2013-10-03 22:47:00,68.7,67.5,29.09,SSE,162,2.2,3.6,96,0.00,,-RA,0.31,VWS V14.01,2013-10-04 03:47:00,
2013-10-03 22:49:00,68.7,68.1,29.09,SSE,162,2.7,3.1,98,0.00,,-RA,0.31,VWS V14.01,2013-10-04 03:49:00,
2013-10-03 22:51:00,68.9,68.3,29.09,SSE,160,4.0,4.0,98,0.00,,-RA,0.31,VWS V14.01,2013-10-04 03:51:00,
2013-10-03 22:52:00,68.9,68.9,29.09,SSE,160,2.2,3.1,100,0.00,,-RA,0.31,VWS V14.01,2013-10-04 03:52:00,
2013-10-03 22:54:00,68.9,68.9,29.09,SSE,161,3.1,3.1,100,0.00,,-RA,0.31,VWS V14.01,2013-10-04 03:54:00,
2013-10-03 22:56:00,69.1,69.1,29.09,SSE,156,5.4,5.4,100,0.00,,-RA,0.31,VWS V14.01,2013-10-04 03:56:00,
2013-10-03 22:57:00,69.1,69.1,29.09,SSE,168,3.1,5.4,100,0.00,,-RA,0.31,VWS V14.01,2013-10-04 03:57:00,
2013-10-03 23:00:00,69.3,69.3,29.09,SSE,158,2.7,4.5,100,0.00,,-RA,0.31,VWS V14.01,2013-10-04 04:00:00,
2013-10-03 23:31:00,71.6,71.6,29.09,SSE,162,5.8,5.8,100,0.00,,-RA,0.31,VWS V14.01,2013-10-04 04:31:00,
2013-10-03 23:32:00,71.6,71.6,29.09,SSE,164,6.7,6.7,100,0.00,,-RA,0.31,VWS V14.01,2013-10-04 04:32:00,
2013-10-03 23:34:00,71.8,71.8,29.09,South,172,6.3,7.6,100,0.00,,-RA,0.31,VWS V14.01,2013-10-04 04:34:00,
2013-10-03 23:35:00,71.8,71.8,29.09,South,180,5.4,6.3,100,0.00,,-RA,0.31,VWS V14.01,2013-10-04 04:35:00,
2013-10-03 23:39:00,72.0,72.0,29.09,SSE,160,8.3,8.3,100,0.00,,-RA,0.31,VWS V14.01,2013-10-04 04:39:00,
2013-10-03 23:40:00,72.0,72.0,29.09,SSE,164,5.4,5.8,100,0.00,,-RA,0.31,VWS V14.01,2013-10-04 04:40:00,
2013-10-03 23:42:00,72.0,72.0,29.09,South,182,5.4,8.1,100,0.00,,-RA,0.31,VWS V14.01,2013-10-04 04:42:00,
2013-10-03 23:43:00,72.0,72.0,29.09,South,169,3.6,6.3,100,0.00,,-RA,0.31,VWS V14.01,2013-10-04 04:43:00,
2013-10-03 23:44:00,72.0,72.0,29.09,South,169,3.6,3.6,100,0.00,,-RA,0.31,VWS V14.01,2013-10-04 04:44:00,
2013-10-03 23:45:00,72.0,72.0,29.09,SSE,165,5.8,5.8,100,0.00,,-RA,0.31,VWS V14.01,2013-10-04 04:45:00,
2013-10-03 23:46:00,72.0,72.0,29.09,SSE,155,4.9,5.8,100,0.00,,-RA,0.31,VWS V14.01,2013-10-04 04:46:00,
2013-10-03 23:48:00,72.0,72.0,29.09,SSE,151,7.2,7.6,100,0.00,,-RA,0.31,VWS V14.01,2013-10-04 04:48:00,
2013-10-03 23:49:00,72.0,72.0,29.09,SSE,155,3.1,4.0,100,0.00,,-RA,0.31,VWS V14.01,2013-10-04 04:49:00,
2013-10-03 23:50:00,72.0,72.0,29.09,SSE,150,3.6,5.4,100,0.00,,-RA,0.31,VWS V14.01,2013-10-04 04:50:00,
2013-10-03 23:51:00,71.8,71.8,29.09,SE,144,2.7,5.8,100,0.00,,-RA,0.31,VWS V14.01,2013-10-04 04:51:00,
2013-10-03 23:52:00,71.8,71.8,29.09,South,175,4.0,5.8,100,0.00,,-RA,0.31,VWS V14.01,2013-10-04 04:52:00,
2013-10-03 23:53:00,71.8,71.8,29.09,SSE,151,5.8,5.8,100,0.00,,-RA,0.31,VWS V14.01,2013-10-04 04:53:00,
2013-10-03 23:54:00,72.0,72.0,29.09,SSE,156,4.0,6.3,100,0.00,,-RA,0.31,VWS V14.01,2013-10-04 04:54:00,
2013-10-03 23:55:00,72.0,72.0,29.09,SSE,160,3.6,4.9,100,0.00,,-RA,0.31,VWS V14.01,2013-10-04 04:55:00,
2013-10-03 23:56:00,72.0,72.0,29.09,SSE,161,4.9,7.6,100,0.00,,-RA,0.31,VWS V14.01,2013-10-04 04:56:00,
2013-10-03 23:57:00,72.0,72.0,29.09,SSE,165,4.0,4.0,100,0.00,,-RA,0.31,VWS V14.01,2013-10-04 04:57:00,
2013-10-03 23:58:00,72.0,72.0,29.09,SSE,162,4.9,5.4,100,0.00,,-RA,0.31,VWS V14.01,2013-10-04 04:58:00,